<?xml version="1.0" encoding="UTF-8"?>
<gpx  version="1.1"  creator="Verlag Esterbauer" xmlns:xsi="http://www.w3.org/2001/XMLSchema-instance" xmlns="http://www.topografix.com/GPX/1/1"  xsi:schemaLocation="http://www.topografix.com/GPX/1/1 http://www.topografix.com/GPX/1/1/gpx.xsd">
<metadata>
  <time>2016-07-14T06:57:48Z</time>
</metadata>
<trk>
  <name>Schrammelweg</name>
  <trkseg>
    <trkpt lat="48.99733" lon="15.05856">
    <ele>571</ele>
    <time>2016-07-24T06:00:00Z</time>
    </trkpt>
    <trkpt lat="48.99734" lon="15.05856">
    <ele>571</ele>
    <time>2016-07-24T06:00:00Z</time>
    </trkpt>
    <trkpt lat="48.99735" lon="15.0586">
    <ele>571</ele>
    <time>2016-07-24T06:00:01Z</time>
    </trkpt>
    <trkpt lat="48.99772" lon="15.05818">
    <ele>572</ele>
    <time>2016-07-24T06:00:12Z</time>
    </trkpt>
    <trkpt lat="48.99791" lon="15.05789">
    <ele>573</ele>
    <time>2016-07-24T06:00:18Z</time>
    </trkpt>
    <trkpt lat="48.99829" lon="15.05724">
    <ele>574</ele>
    <time>2016-07-24T06:00:32Z</time>
    </trkpt>
    <trkpt lat="48.99867" lon="15.05677">
    <ele>575</ele>
    <time>2016-07-24T06:00:43Z</time>
    </trkpt>
    <trkpt lat="48.99933" lon="15.05531">
    <ele>577</ele>
    <time>2016-07-24T06:01:11Z</time>
    </trkpt>
    <trkpt lat="49.00008" lon="15.05407">
    <ele>579</ele>
    <time>2016-07-24T06:01:37Z</time>
    </trkpt>
    <trkpt lat="49.00094" lon="15.0524">
    <ele>581</ele>
    <time>2016-07-24T06:02:10Z</time>
    </trkpt>
    <trkpt lat="49.00188" lon="15.05032">
    <ele>583</ele>
    <time>2016-07-24T06:02:49Z</time>
    </trkpt>
    <trkpt lat="49.00249" lon="15.04845">
    <ele>585</ele>
    <time>2016-07-24T06:03:21Z</time>
    </trkpt>
    <trkpt lat="49.00258" lon="15.04808">
    <ele>585</ele>
    <time>2016-07-24T06:03:27Z</time>
    </trkpt>
    <trkpt lat="49.00266" lon="15.04727">
    <ele>585</ele>
    <time>2016-07-24T06:03:40Z</time>
    </trkpt>
    <trkpt lat="49.00279" lon="15.04647">
    <ele>585</ele>
    <time>2016-07-24T06:03:53Z</time>
    </trkpt>
    <trkpt lat="49.00288" lon="15.04607">
    <ele>585</ele>
    <time>2016-07-24T06:03:59Z</time>
    </trkpt>
    <trkpt lat="49.00302" lon="15.04567">
    <ele>585</ele>
    <time>2016-07-24T06:04:06Z</time>
    </trkpt>
    <trkpt lat="49.00332" lon="15.04488">
    <ele>583</ele>
    <time>2016-07-24T06:04:20Z</time>
    </trkpt>
    <trkpt lat="49.00363" lon="15.04386">
    <ele>580</ele>
    <time>2016-07-24T06:04:38Z</time>
    </trkpt>
    <trkpt lat="49.00399" lon="15.04277">
    <ele>577</ele>
    <time>2016-07-24T06:04:57Z</time>
    </trkpt>
    <trkpt lat="49.0043" lon="15.0419">
    <ele>575</ele>
    <time>2016-07-24T06:05:12Z</time>
    </trkpt>
    <trkpt lat="49.00438" lon="15.04155">
    <ele>573</ele>
    <time>2016-07-24T06:05:18Z</time>
    </trkpt>
    <trkpt lat="49.00453" lon="15.0408">
    <ele>570</ele>
    <time>2016-07-24T06:05:30Z</time>
    </trkpt>
    <trkpt lat="49.00463" lon="15.04061">
    <ele>569</ele>
    <time>2016-07-24T06:05:34Z</time>
    </trkpt>
    <trkpt lat="49.00473" lon="15.04047">
    <ele>569</ele>
    <time>2016-07-24T06:05:37Z</time>
    </trkpt>
    <trkpt lat="49.00526" lon="15.04004">
    <ele>565</ele>
    <time>2016-07-24T06:05:51Z</time>
    </trkpt>
    <trkpt lat="49.00549" lon="15.0398">
    <ele>563</ele>
    <time>2016-07-24T06:05:57Z</time>
    </trkpt>
    <trkpt lat="49.00609" lon="15.03948">
    <ele>558</ele>
    <time>2016-07-24T06:06:12Z</time>
    </trkpt>
    <trkpt lat="49.00637" lon="15.0393">
    <ele>555</ele>
    <time>2016-07-24T06:06:20Z</time>
    </trkpt>
    <trkpt lat="49.00637" lon="15.03931">
    <ele>555</ele>
    <time>2016-07-24T06:06:20Z</time>
    </trkpt>
    <trkpt lat="49.00682" lon="15.03895">
    <ele>551</ele>
    <time>2016-07-24T06:06:32Z</time>
    </trkpt>
    <trkpt lat="49.00709" lon="15.03866">
    <ele>548</ele>
    <time>2016-07-24T06:06:39Z</time>
    </trkpt>
    <trkpt lat="49.00731" lon="15.03853">
    <ele>546</ele>
    <time>2016-07-24T06:06:45Z</time>
    </trkpt>
    <trkpt lat="49.00752" lon="15.03849">
    <ele>545</ele>
    <time>2016-07-24T06:06:50Z</time>
    </trkpt>
    <trkpt lat="49.00803" lon="15.03854">
    <ele>541</ele>
    <time>2016-07-24T06:07:02Z</time>
    </trkpt>
    <trkpt lat="49.00816" lon="15.03851">
    <ele>540</ele>
    <time>2016-07-24T06:07:05Z</time>
    </trkpt>
    <trkpt lat="49.00826" lon="15.03845">
    <ele>539</ele>
    <time>2016-07-24T06:07:08Z</time>
    </trkpt>
    <trkpt lat="49.0085" lon="15.03817">
    <ele>537</ele>
    <time>2016-07-24T06:07:15Z</time>
    </trkpt>
    <trkpt lat="49.00917" lon="15.03727">
    <ele>533</ele>
    <time>2016-07-24T06:07:36Z</time>
    </trkpt>
    <trkpt lat="49.00933" lon="15.0369">
    <ele>531</ele>
    <time>2016-07-24T06:07:43Z</time>
    </trkpt>
    <trkpt lat="49.00942" lon="15.03664">
    <ele>530</ele>
    <time>2016-07-24T06:07:47Z</time>
    </trkpt>
    <trkpt lat="49.00947" lon="15.03641">
    <ele>529</ele>
    <time>2016-07-24T06:07:51Z</time>
    </trkpt>
    <trkpt lat="49.00949" lon="15.03622">
    <ele>528</ele>
    <time>2016-07-24T06:07:54Z</time>
    </trkpt>
    <trkpt lat="49.00945" lon="15.03544">
    <ele>526</ele>
    <time>2016-07-24T06:08:06Z</time>
    </trkpt>
    <trkpt lat="49.00956" lon="15.03511">
    <ele>525</ele>
    <time>2016-07-24T06:08:12Z</time>
    </trkpt>
    <trkpt lat="49.00975" lon="15.0348">
    <ele>523</ele>
    <time>2016-07-24T06:08:18Z</time>
    </trkpt>
    <trkpt lat="49.01047" lon="15.03395">
    <ele>519</ele>
    <time>2016-07-24T06:08:40Z</time>
    </trkpt>
    <trkpt lat="49.01059" lon="15.03374">
    <ele>518</ele>
    <time>2016-07-24T06:08:44Z</time>
    </trkpt>
    <trkpt lat="49.01067" lon="15.03354">
    <ele>518</ele>
    <time>2016-07-24T06:08:48Z</time>
    </trkpt>
    <trkpt lat="49.01074" lon="15.03327">
    <ele>517</ele>
    <time>2016-07-24T06:08:52Z</time>
    </trkpt>
    <trkpt lat="49.01074" lon="15.03328">
    <ele>517</ele>
    <time>2016-07-24T06:08:52Z</time>
    </trkpt>
    <trkpt lat="49.01095" lon="15.03249">
    <ele>516</ele>
    <time>2016-07-24T06:09:06Z</time>
    </trkpt>
    <trkpt lat="49.01114" lon="15.03203">
    <ele>515</ele>
    <time>2016-07-24T06:09:14Z</time>
    </trkpt>
    <trkpt lat="49.01135" lon="15.03163">
    <ele>515</ele>
    <time>2016-07-24T06:09:22Z</time>
    </trkpt>
    <trkpt lat="49.01157" lon="15.03127">
    <ele>514</ele>
    <time>2016-07-24T06:09:30Z</time>
    </trkpt>
    <trkpt lat="49.01247" lon="15.03012">
    <ele>513</ele>
    <time>2016-07-24T06:09:57Z</time>
    </trkpt>
    <trkpt lat="49.01265" lon="15.02987">
    <ele>512</ele>
    <time>2016-07-24T06:10:03Z</time>
    </trkpt>
    <trkpt lat="49.0129" lon="15.02947">
    <ele>512</ele>
    <time>2016-07-24T06:10:12Z</time>
    </trkpt>
    <trkpt lat="49.0136" lon="15.02807">
    <ele>513</ele>
    <time>2016-07-24T06:10:39Z</time>
    </trkpt>
    <trkpt lat="49.0136" lon="15.02808">
    <ele>513</ele>
    <time>2016-07-24T06:10:39Z</time>
    </trkpt>
    <trkpt lat="49.01401" lon="15.02724">
    <ele>513</ele>
    <time>2016-07-24T06:10:55Z</time>
    </trkpt>
    <trkpt lat="49.01405" lon="15.02709">
    <ele>513</ele>
    <time>2016-07-24T06:10:58Z</time>
    </trkpt>
    <trkpt lat="49.01406" lon="15.02689">
    <ele>513</ele>
    <time>2016-07-24T06:11:01Z</time>
    </trkpt>
    <trkpt lat="49.01405" lon="15.02671">
    <ele>512</ele>
    <time>2016-07-24T06:11:04Z</time>
    </trkpt>
    <trkpt lat="49.01399" lon="15.02655">
    <ele>512</ele>
    <time>2016-07-24T06:11:06Z</time>
    </trkpt>
    <trkpt lat="49.01351" lon="15.02544">
    <ele>511</ele>
    <time>2016-07-24T06:11:27Z</time>
    </trkpt>
    <trkpt lat="49.01308" lon="15.02465">
    <ele>510</ele>
    <time>2016-07-24T06:11:43Z</time>
    </trkpt>
    <trkpt lat="49.01309" lon="15.02464">
    <ele>510</ele>
    <time>2016-07-24T06:11:43Z</time>
    </trkpt>
    <trkpt lat="49.01206" lon="15.02254">
    <ele>509</ele>
    <time>2016-07-24T06:12:24Z</time>
    </trkpt>
    <trkpt lat="49.01198" lon="15.02241">
    <ele>509</ele>
    <time>2016-07-24T06:12:26Z</time>
    </trkpt>
    <trkpt lat="49.01188" lon="15.02229">
    <ele>508</ele>
    <time>2016-07-24T06:12:29Z</time>
    </trkpt>
    <trkpt lat="49.01175" lon="15.02218">
    <ele>509</ele>
    <time>2016-07-24T06:12:33Z</time>
    </trkpt>
    <trkpt lat="49.01165" lon="15.02217">
    <ele>509</ele>
    <time>2016-07-24T06:12:35Z</time>
    </trkpt>
    <trkpt lat="49.01085" lon="15.02237">
    <ele>511</ele>
    <time>2016-07-24T06:12:54Z</time>
    </trkpt>
    <trkpt lat="49.0106" lon="15.02241">
    <ele>511</ele>
    <time>2016-07-24T06:13:00Z</time>
    </trkpt>
    <trkpt lat="49.01041" lon="15.02241">
    <ele>511</ele>
    <time>2016-07-24T06:13:05Z</time>
    </trkpt>
    <trkpt lat="49.00994" lon="15.02226">
    <ele>513</ele>
    <time>2016-07-24T06:13:16Z</time>
    </trkpt>
    <trkpt lat="49.00984" lon="15.02221">
    <ele>514</ele>
    <time>2016-07-24T06:13:19Z</time>
    </trkpt>
    <trkpt lat="49.00951" lon="15.02188">
    <ele>515</ele>
    <time>2016-07-24T06:13:28Z</time>
    </trkpt>
    <trkpt lat="49.00929" lon="15.02158">
    <ele>517</ele>
    <time>2016-07-24T06:13:35Z</time>
    </trkpt>
    <trkpt lat="49.00917" lon="15.02137">
    <ele>518</ele>
    <time>2016-07-24T06:13:39Z</time>
    </trkpt>
    <trkpt lat="49.00892" lon="15.02078">
    <ele>520</ele>
    <time>2016-07-24T06:13:50Z</time>
    </trkpt>
    <trkpt lat="49.00861" lon="15.02036">
    <ele>523</ele>
    <time>2016-07-24T06:14:00Z</time>
    </trkpt>
    <trkpt lat="49.00814" lon="15.02003">
    <ele>527</ele>
    <time>2016-07-24T06:14:12Z</time>
    </trkpt>
    <trkpt lat="49.00757" lon="15.01953">
    <ele>531</ele>
    <time>2016-07-24T06:14:28Z</time>
    </trkpt>
    <trkpt lat="49.00702" lon="15.01914">
    <ele>535</ele>
    <time>2016-07-24T06:14:42Z</time>
    </trkpt>
    <trkpt lat="49.0067" lon="15.01889">
    <ele>538</ele>
    <time>2016-07-24T06:14:50Z</time>
    </trkpt>
    <trkpt lat="49.00671" lon="15.01888">
    <ele>538</ele>
    <time>2016-07-24T06:14:51Z</time>
    </trkpt>
    <trkpt lat="49.0058" lon="15.01813">
    <ele>544</ele>
    <time>2016-07-24T06:15:15Z</time>
    </trkpt>
    <trkpt lat="49.00556" lon="15.01801">
    <ele>545</ele>
    <time>2016-07-24T06:15:21Z</time>
    </trkpt>
    <trkpt lat="49.00519" lon="15.01807">
    <ele>547</ele>
    <time>2016-07-24T06:15:30Z</time>
    </trkpt>
    <trkpt lat="49.00466" lon="15.01822">
    <ele>550</ele>
    <time>2016-07-24T06:15:42Z</time>
    </trkpt>
    <trkpt lat="49.00416" lon="15.01827">
    <ele>552</ele>
    <time>2016-07-24T06:15:54Z</time>
    </trkpt>
    <trkpt lat="49.00344" lon="15.01825">
    <ele>554</ele>
    <time>2016-07-24T06:16:11Z</time>
    </trkpt>
    <trkpt lat="49.00261" lon="15.01816">
    <ele>558</ele>
    <time>2016-07-24T06:16:31Z</time>
    </trkpt>
    <trkpt lat="49.00227" lon="15.01819">
    <ele>559</ele>
    <time>2016-07-24T06:16:39Z</time>
    </trkpt>
    <trkpt lat="49.00181" lon="15.01829">
    <ele>560</ele>
    <time>2016-07-24T06:16:50Z</time>
    </trkpt>
    <trkpt lat="49.00124" lon="15.01839">
    <ele>562</ele>
    <time>2016-07-24T06:17:03Z</time>
    </trkpt>
    <trkpt lat="49.00084" lon="15.01843">
    <ele>563</ele>
    <time>2016-07-24T06:17:13Z</time>
    </trkpt>
    <trkpt lat="49.00042" lon="15.01839">
    <ele>564</ele>
    <time>2016-07-24T06:17:23Z</time>
    </trkpt>
    <trkpt lat="49.00008" lon="15.01839">
    <ele>564</ele>
    <time>2016-07-24T06:17:31Z</time>
    </trkpt>
    <trkpt lat="48.99979" lon="15.01834">
    <ele>565</ele>
    <time>2016-07-24T06:17:37Z</time>
    </trkpt>
    <trkpt lat="48.99916" lon="15.01835">
    <ele>566</ele>
    <time>2016-07-24T06:17:52Z</time>
    </trkpt>
    <trkpt lat="48.9986" lon="15.01852">
    <ele>566</ele>
    <time>2016-07-24T06:18:06Z</time>
    </trkpt>
    <trkpt lat="48.99801" lon="15.01862">
    <ele>567</ele>
    <time>2016-07-24T06:18:20Z</time>
    </trkpt>
    <trkpt lat="48.9977" lon="15.0187">
    <ele>567</ele>
    <time>2016-07-24T06:18:27Z</time>
    </trkpt>
    <trkpt lat="48.99721" lon="15.01876">
    <ele>567</ele>
    <time>2016-07-24T06:18:39Z</time>
    </trkpt>
    <trkpt lat="48.99679" lon="15.01886">
    <ele>567</ele>
    <time>2016-07-24T06:18:49Z</time>
    </trkpt>
    <trkpt lat="48.99628" lon="15.01892">
    <ele>567</ele>
    <time>2016-07-24T06:19:01Z</time>
    </trkpt>
    <trkpt lat="48.99578" lon="15.01904">
    <ele>567</ele>
    <time>2016-07-24T06:19:13Z</time>
    </trkpt>
    <trkpt lat="48.99503" lon="15.01927">
    <ele>567</ele>
    <time>2016-07-24T06:19:31Z</time>
    </trkpt>
    <trkpt lat="48.9943" lon="15.01946">
    <ele>567</ele>
    <time>2016-07-24T06:19:48Z</time>
    </trkpt>
    <trkpt lat="48.99386" lon="15.01961">
    <ele>566</ele>
    <time>2016-07-24T06:19:59Z</time>
    </trkpt>
    <trkpt lat="48.99324" lon="15.01996">
    <ele>566</ele>
    <time>2016-07-24T06:20:14Z</time>
    </trkpt>
    <trkpt lat="48.99195" lon="15.02087">
    <ele>565</ele>
    <time>2016-07-24T06:20:48Z</time>
    </trkpt>
    <trkpt lat="48.99195" lon="15.02088">
    <ele>565</ele>
    <time>2016-07-24T06:20:48Z</time>
    </trkpt>
    <trkpt lat="48.99092" lon="15.02161">
    <ele>565</ele>
    <time>2016-07-24T06:21:15Z</time>
    </trkpt>
    <trkpt lat="48.99081" lon="15.02171">
    <ele>565</ele>
    <time>2016-07-24T06:21:18Z</time>
    </trkpt>
    <trkpt lat="48.99075" lon="15.02179">
    <ele>565</ele>
    <time>2016-07-24T06:21:20Z</time>
    </trkpt>
    <trkpt lat="48.99062" lon="15.02207">
    <ele>565</ele>
    <time>2016-07-24T06:21:25Z</time>
    </trkpt>
    <trkpt lat="48.99004" lon="15.02355">
    <ele>564</ele>
    <time>2016-07-24T06:21:52Z</time>
    </trkpt>
    <trkpt lat="48.98985" lon="15.02388">
    <ele>564</ele>
    <time>2016-07-24T06:21:58Z</time>
    </trkpt>
    <trkpt lat="48.98979" lon="15.02398">
    <ele>564</ele>
    <time>2016-07-24T06:22:00Z</time>
    </trkpt>
    <trkpt lat="48.98951" lon="15.02427">
    <ele>564</ele>
    <time>2016-07-24T06:22:08Z</time>
    </trkpt>
    <trkpt lat="48.98877" lon="15.02492">
    <ele>564</ele>
    <time>2016-07-24T06:22:29Z</time>
    </trkpt>
    <trkpt lat="48.98865" lon="15.02499">
    <ele>564</ele>
    <time>2016-07-24T06:22:32Z</time>
    </trkpt>
    <trkpt lat="48.98815" lon="15.02522">
    <ele>565</ele>
    <time>2016-07-24T06:22:44Z</time>
    </trkpt>
    <trkpt lat="48.98741" lon="15.02543">
    <ele>565</ele>
    <time>2016-07-24T06:23:02Z</time>
    </trkpt>
    <trkpt lat="48.98713" lon="15.02553">
    <ele>566</ele>
    <time>2016-07-24T06:23:08Z</time>
    </trkpt>
    <trkpt lat="48.9865" lon="15.02582">
    <ele>566</ele>
    <time>2016-07-24T06:23:24Z</time>
    </trkpt>
    <trkpt lat="48.98588" lon="15.02596">
    <ele>567</ele>
    <time>2016-07-24T06:23:39Z</time>
    </trkpt>
    <trkpt lat="48.98568" lon="15.02604">
    <ele>567</ele>
    <time>2016-07-24T06:23:44Z</time>
    </trkpt>
    <trkpt lat="48.98537" lon="15.02614">
    <ele>568</ele>
    <time>2016-07-24T06:23:51Z</time>
    </trkpt>
    <trkpt lat="48.98494" lon="15.02637">
    <ele>570</ele>
    <time>2016-07-24T06:24:02Z</time>
    </trkpt>
    <trkpt lat="48.98479" lon="15.02647">
    <ele>570</ele>
    <time>2016-07-24T06:24:06Z</time>
    </trkpt>
    <trkpt lat="48.98462" lon="15.02625">
    <ele>571</ele>
    <time>2016-07-24T06:24:11Z</time>
    </trkpt>
    <trkpt lat="48.98462" lon="15.02624">
    <ele>571</ele>
    <time>2016-07-24T06:24:11Z</time>
    </trkpt>
    <trkpt lat="48.98348" lon="15.02482">
    <ele>565</ele>
    <time>2016-07-24T06:24:46Z</time>
    </trkpt>
    <trkpt lat="48.98209" lon="15.02054">
    <ele>554</ele>
    <time>2016-07-24T06:26:00Z</time>
    </trkpt>
    <trkpt lat="48.98011" lon="15.01635">
    <ele>541</ele>
    <time>2016-07-24T06:27:20Z</time>
    </trkpt>
    <trkpt lat="48.97925" lon="15.01446">
    <ele>535</ele>
    <time>2016-07-24T06:27:55Z</time>
    </trkpt>
    <trkpt lat="48.97926" lon="15.01445">
    <ele>535</ele>
    <time>2016-07-24T06:27:56Z</time>
    </trkpt>
    <trkpt lat="48.97837" lon="15.01249">
    <ele>533</ele>
    <time>2016-07-24T06:28:32Z</time>
    </trkpt>
    <trkpt lat="48.97783" lon="15.01099">
    <ele>531</ele>
    <time>2016-07-24T06:28:59Z</time>
    </trkpt>
    <trkpt lat="48.97557" lon="15.00997">
    <ele>528</ele>
    <time>2016-07-24T06:29:54Z</time>
    </trkpt>
    <trkpt lat="48.9741" lon="15.00903">
    <ele>525</ele>
    <time>2016-07-24T06:30:32Z</time>
    </trkpt>
    <trkpt lat="48.97342" lon="15.00826">
    <ele>524</ele>
    <time>2016-07-24T06:30:52Z</time>
    </trkpt>
    <trkpt lat="48.97289" lon="15.00572">
    <ele>521</ele>
    <time>2016-07-24T06:31:33Z</time>
    </trkpt>
    <trkpt lat="48.9729" lon="15.00571">
    <ele>521</ele>
    <time>2016-07-24T06:31:34Z</time>
    </trkpt>
    <trkpt lat="48.97247" lon="15.00365">
    <ele>519</ele>
    <time>2016-07-24T06:32:07Z</time>
    </trkpt>
    <trkpt lat="48.96955" lon="14.99632">
    <ele>509</ele>
    <time>2016-07-24T06:34:20Z</time>
    </trkpt>
    <trkpt lat="48.96812" lon="14.99543">
    <ele>507</ele>
    <time>2016-07-24T06:34:56Z</time>
    </trkpt>
    <trkpt lat="48.96571" lon="14.99123">
    <ele>502</ele>
    <time>2016-07-24T06:36:23Z</time>
    </trkpt>
    <trkpt lat="48.96515" lon="14.98957">
    <ele>500</ele>
    <time>2016-07-24T06:36:52Z</time>
    </trkpt>
    <trkpt lat="48.96393" lon="14.98357">
    <ele>495</ele>
    <time>2016-07-24T06:38:29Z</time>
    </trkpt>
    <trkpt lat="48.96282" lon="14.97891">
    <ele>491</ele>
    <time>2016-07-24T06:39:46Z</time>
    </trkpt>
    <trkpt lat="48.96273" lon="14.97915">
    <ele>491</ele>
    <time>2016-07-24T06:39:50Z</time>
    </trkpt>
    <trkpt lat="48.96273" lon="14.97915">
    <ele>491</ele>
    <time>2016-07-24T06:39:50Z</time>
    </trkpt>
    <trkpt lat="48.9632" lon="14.97786">
    <ele>489</ele>
    <time>2016-07-24T06:40:13Z</time>
    </trkpt>
    <trkpt lat="48.96335" lon="14.97741">
    <ele>489</ele>
    <time>2016-07-24T06:40:21Z</time>
    </trkpt>
    <trkpt lat="48.96347" lon="14.977">
    <ele>488</ele>
    <time>2016-07-24T06:40:28Z</time>
    </trkpt>
    <trkpt lat="48.96363" lon="14.97636">
    <ele>488</ele>
    <time>2016-07-24T06:40:38Z</time>
    </trkpt>
    <trkpt lat="48.96369" lon="14.97595">
    <ele>487</ele>
    <time>2016-07-24T06:40:45Z</time>
    </trkpt>
    <trkpt lat="48.96369" lon="14.9757">
    <ele>487</ele>
    <time>2016-07-24T06:40:49Z</time>
    </trkpt>
    <trkpt lat="48.96373" lon="14.97527">
    <ele>487</ele>
    <time>2016-07-24T06:40:56Z</time>
    </trkpt>
    <trkpt lat="48.96371" lon="14.97469">
    <ele>487</ele>
    <time>2016-07-24T06:41:05Z</time>
    </trkpt>
    <trkpt lat="48.96373" lon="14.97395">
    <ele>486</ele>
    <time>2016-07-24T06:41:16Z</time>
    </trkpt>
    <trkpt lat="48.96372" lon="14.97334">
    <ele>486</ele>
    <time>2016-07-24T06:41:25Z</time>
    </trkpt>
    <trkpt lat="48.96376" lon="14.97276">
    <ele>486</ele>
    <time>2016-07-24T06:41:35Z</time>
    </trkpt>
    <trkpt lat="48.96375" lon="14.97227">
    <ele>486</ele>
    <time>2016-07-24T06:41:42Z</time>
    </trkpt>
    <trkpt lat="48.96378" lon="14.97173">
    <ele>486</ele>
    <time>2016-07-24T06:41:51Z</time>
    </trkpt>
    <trkpt lat="48.96384" lon="14.97096">
    <ele>486</ele>
    <time>2016-07-24T06:42:03Z</time>
    </trkpt>
    <trkpt lat="48.964" lon="14.96966">
    <ele>485</ele>
    <time>2016-07-24T06:42:23Z</time>
    </trkpt>
    <trkpt lat="48.96401" lon="14.96938">
    <ele>485</ele>
    <time>2016-07-24T06:42:27Z</time>
    </trkpt>
    <trkpt lat="48.96409" lon="14.96883">
    <ele>485</ele>
    <time>2016-07-24T06:42:36Z</time>
    </trkpt>
    <trkpt lat="48.96416" lon="14.96796">
    <ele>485</ele>
    <time>2016-07-24T06:42:50Z</time>
    </trkpt>
    <trkpt lat="48.96427" lon="14.96714">
    <ele>485</ele>
    <time>2016-07-24T06:43:03Z</time>
    </trkpt>
    <trkpt lat="48.96428" lon="14.96694">
    <ele>484</ele>
    <time>2016-07-24T06:43:06Z</time>
    </trkpt>
    <trkpt lat="48.96415" lon="14.96611">
    <ele>484</ele>
    <time>2016-07-24T06:43:19Z</time>
    </trkpt>
    <trkpt lat="48.96406" lon="14.9657">
    <ele>484</ele>
    <time>2016-07-24T06:43:26Z</time>
    </trkpt>
    <trkpt lat="48.96401" lon="14.96555">
    <ele>484</ele>
    <time>2016-07-24T06:43:28Z</time>
    </trkpt>
    <trkpt lat="48.96393" lon="14.96539">
    <ele>483</ele>
    <time>2016-07-24T06:43:31Z</time>
    </trkpt>
    <trkpt lat="48.96364" lon="14.96499">
    <ele>483</ele>
    <time>2016-07-24T06:43:41Z</time>
    </trkpt>
    <trkpt lat="48.96337" lon="14.9647">
    <ele>482</ele>
    <time>2016-07-24T06:43:48Z</time>
    </trkpt>
    <trkpt lat="48.96295" lon="14.96403">
    <ele>481</ele>
    <time>2016-07-24T06:44:03Z</time>
    </trkpt>
    <trkpt lat="48.96272" lon="14.96369">
    <ele>481</ele>
    <time>2016-07-24T06:44:10Z</time>
    </trkpt>
    <trkpt lat="48.96299" lon="14.96355">
    <ele>481</ele>
    <time>2016-07-24T06:44:17Z</time>
    </trkpt>
    <trkpt lat="48.96315" lon="14.96342">
    <ele>481</ele>
    <time>2016-07-24T06:44:21Z</time>
    </trkpt>
    <trkpt lat="48.96382" lon="14.96251">
    <ele>480</ele>
    <time>2016-07-24T06:44:43Z</time>
    </trkpt>
    <trkpt lat="48.96404" lon="14.96226">
    <ele>480</ele>
    <time>2016-07-24T06:44:49Z</time>
    </trkpt>
    <trkpt lat="48.96442" lon="14.96172">
    <ele>480</ele>
    <time>2016-07-24T06:45:01Z</time>
    </trkpt>
    <trkpt lat="48.96458" lon="14.96139">
    <ele>480</ele>
    <time>2016-07-24T06:45:08Z</time>
    </trkpt>
    <trkpt lat="48.96478" lon="14.96112">
    <ele>480</ele>
    <time>2016-07-24T06:45:14Z</time>
    </trkpt>
    <trkpt lat="48.96503" lon="14.9606">
    <ele>480</ele>
    <time>2016-07-24T06:45:24Z</time>
    </trkpt>
    <trkpt lat="48.96528" lon="14.96025">
    <ele>480</ele>
    <time>2016-07-24T06:45:32Z</time>
    </trkpt>
    <trkpt lat="48.96557" lon="14.95977">
    <ele>480</ele>
    <time>2016-07-24T06:45:42Z</time>
    </trkpt>
    <trkpt lat="48.96603" lon="14.95923">
    <ele>480</ele>
    <time>2016-07-24T06:45:56Z</time>
    </trkpt>
    <trkpt lat="48.96685" lon="14.95815">
    <ele>480</ele>
    <time>2016-07-24T06:46:21Z</time>
    </trkpt>
    <trkpt lat="48.9674" lon="14.95754">
    <ele>480</ele>
    <time>2016-07-24T06:46:37Z</time>
    </trkpt>
    <trkpt lat="48.96806" lon="14.95667">
    <ele>479</ele>
    <time>2016-07-24T06:46:58Z</time>
    </trkpt>
    <trkpt lat="48.9684" lon="14.95618">
    <ele>479</ele>
    <time>2016-07-24T06:47:09Z</time>
    </trkpt>
    <trkpt lat="48.9695" lon="14.95485">
    <ele>479</ele>
    <time>2016-07-24T06:47:42Z</time>
    </trkpt>
    <trkpt lat="48.96978" lon="14.95457">
    <ele>479</ele>
    <time>2016-07-24T06:47:50Z</time>
    </trkpt>
    <trkpt lat="48.97059" lon="14.95404">
    <ele>479</ele>
    <time>2016-07-24T06:48:11Z</time>
    </trkpt>
    <trkpt lat="48.97076" lon="14.9539">
    <ele>479</ele>
    <time>2016-07-24T06:48:15Z</time>
    </trkpt>
    <trkpt lat="48.97099" lon="14.95379">
    <ele>479</ele>
    <time>2016-07-24T06:48:21Z</time>
    </trkpt>
    <trkpt lat="48.97353" lon="14.95436">
    <ele>479</ele>
    <time>2016-07-24T06:49:21Z</time>
    </trkpt>
    <trkpt lat="48.97353" lon="14.95436">
    <ele>479</ele>
    <time>2016-07-24T06:49:21Z</time>
    </trkpt>
    <trkpt lat="48.971" lon="14.95379">
    <ele>479</ele>
    <time>2016-07-24T06:50:22Z</time>
    </trkpt>
    <trkpt lat="48.97076" lon="14.95389">
    <ele>479</ele>
    <time>2016-07-24T06:50:27Z</time>
    </trkpt>
    <trkpt lat="48.9706" lon="14.95403">
    <ele>479</ele>
    <time>2016-07-24T06:50:32Z</time>
    </trkpt>
    <trkpt lat="48.96978" lon="14.95456">
    <ele>479</ele>
    <time>2016-07-24T06:50:53Z</time>
    </trkpt>
    <trkpt lat="48.96951" lon="14.95484">
    <ele>479</ele>
    <time>2016-07-24T06:51:00Z</time>
    </trkpt>
    <trkpt lat="48.96841" lon="14.95617">
    <ele>480</ele>
    <time>2016-07-24T06:51:34Z</time>
    </trkpt>
    <trkpt lat="48.96807" lon="14.95666">
    <ele>480</ele>
    <time>2016-07-24T06:51:45Z</time>
    </trkpt>
    <trkpt lat="48.9674" lon="14.95753">
    <ele>480</ele>
    <time>2016-07-24T06:52:05Z</time>
    </trkpt>
    <trkpt lat="48.96686" lon="14.95814">
    <ele>480</ele>
    <time>2016-07-24T06:52:21Z</time>
    </trkpt>
    <trkpt lat="48.96604" lon="14.95922">
    <ele>481</ele>
    <time>2016-07-24T06:52:47Z</time>
    </trkpt>
    <trkpt lat="48.96558" lon="14.95976">
    <ele>481</ele>
    <time>2016-07-24T06:53:00Z</time>
    </trkpt>
    <trkpt lat="48.96529" lon="14.96024">
    <ele>481</ele>
    <time>2016-07-24T06:53:11Z</time>
    </trkpt>
    <trkpt lat="48.96503" lon="14.96059">
    <ele>481</ele>
    <time>2016-07-24T06:53:19Z</time>
    </trkpt>
    <trkpt lat="48.96478" lon="14.96111">
    <ele>481</ele>
    <time>2016-07-24T06:53:29Z</time>
    </trkpt>
    <trkpt lat="48.96459" lon="14.96138">
    <ele>481</ele>
    <time>2016-07-24T06:53:35Z</time>
    </trkpt>
    <trkpt lat="48.96442" lon="14.96171">
    <ele>482</ele>
    <time>2016-07-24T06:53:41Z</time>
    </trkpt>
    <trkpt lat="48.96404" lon="14.96225">
    <ele>482</ele>
    <time>2016-07-24T06:53:54Z</time>
    </trkpt>
    <trkpt lat="48.96383" lon="14.9625">
    <ele>482</ele>
    <time>2016-07-24T06:54:00Z</time>
    </trkpt>
    <trkpt lat="48.96316" lon="14.96341">
    <ele>483</ele>
    <time>2016-07-24T06:54:21Z</time>
    </trkpt>
    <trkpt lat="48.963" lon="14.96354">
    <ele>483</ele>
    <time>2016-07-24T06:54:25Z</time>
    </trkpt>
    <trkpt lat="48.96273" lon="14.96368">
    <ele>483</ele>
    <time>2016-07-24T06:54:32Z</time>
    </trkpt>
    <trkpt lat="48.96296" lon="14.96402">
    <ele>483</ele>
    <time>2016-07-24T06:54:40Z</time>
    </trkpt>
    <trkpt lat="48.96337" lon="14.96469">
    <ele>484</ele>
    <time>2016-07-24T06:54:54Z</time>
    </trkpt>
    <trkpt lat="48.96365" lon="14.96498">
    <ele>484</ele>
    <time>2016-07-24T06:55:02Z</time>
    </trkpt>
    <trkpt lat="48.96394" lon="14.96538">
    <ele>485</ele>
    <time>2016-07-24T06:55:11Z</time>
    </trkpt>
    <trkpt lat="48.96402" lon="14.96554">
    <ele>485</ele>
    <time>2016-07-24T06:55:14Z</time>
    </trkpt>
    <trkpt lat="48.96407" lon="14.96569">
    <ele>485</ele>
    <time>2016-07-24T06:55:17Z</time>
    </trkpt>
    <trkpt lat="48.96416" lon="14.9661">
    <ele>485</ele>
    <time>2016-07-24T06:55:23Z</time>
    </trkpt>
    <trkpt lat="48.96429" lon="14.96693">
    <ele>486</ele>
    <time>2016-07-24T06:55:37Z</time>
    </trkpt>
    <trkpt lat="48.96427" lon="14.96713">
    <ele>486</ele>
    <time>2016-07-24T06:55:40Z</time>
    </trkpt>
    <trkpt lat="48.96416" lon="14.96795">
    <ele>487</ele>
    <time>2016-07-24T06:55:53Z</time>
    </trkpt>
    <trkpt lat="48.96409" lon="14.96882">
    <ele>487</ele>
    <time>2016-07-24T06:56:06Z</time>
    </trkpt>
    <trkpt lat="48.96402" lon="14.96937">
    <ele>488</ele>
    <time>2016-07-24T06:56:15Z</time>
    </trkpt>
    <trkpt lat="48.964" lon="14.96965">
    <ele>488</ele>
    <time>2016-07-24T06:56:19Z</time>
    </trkpt>
    <trkpt lat="48.96384" lon="14.97095">
    <ele>487</ele>
    <time>2016-07-24T06:56:40Z</time>
    </trkpt>
    <trkpt lat="48.96378" lon="14.97172">
    <ele>487</ele>
    <time>2016-07-24T06:56:52Z</time>
    </trkpt>
    <trkpt lat="48.96375" lon="14.97226">
    <ele>487</ele>
    <time>2016-07-24T06:57:00Z</time>
    </trkpt>
    <trkpt lat="48.96377" lon="14.97275">
    <ele>486</ele>
    <time>2016-07-24T06:57:08Z</time>
    </trkpt>
    <trkpt lat="48.96373" lon="14.97333">
    <ele>486</ele>
    <time>2016-07-24T06:57:17Z</time>
    </trkpt>
    <trkpt lat="48.96374" lon="14.97394">
    <ele>486</ele>
    <time>2016-07-24T06:57:26Z</time>
    </trkpt>
    <trkpt lat="48.96372" lon="14.97468">
    <ele>487</ele>
    <time>2016-07-24T06:57:38Z</time>
    </trkpt>
    <trkpt lat="48.96373" lon="14.97526">
    <ele>487</ele>
    <time>2016-07-24T06:57:47Z</time>
    </trkpt>
    <trkpt lat="48.96369" lon="14.97569">
    <ele>487</ele>
    <time>2016-07-24T06:57:54Z</time>
    </trkpt>
    <trkpt lat="48.96369" lon="14.97594">
    <ele>487</ele>
    <time>2016-07-24T06:57:58Z</time>
    </trkpt>
    <trkpt lat="48.96363" lon="14.97635">
    <ele>488</ele>
    <time>2016-07-24T06:58:04Z</time>
    </trkpt>
    <trkpt lat="48.96347" lon="14.97699">
    <ele>489</ele>
    <time>2016-07-24T06:58:15Z</time>
    </trkpt>
    <trkpt lat="48.9632" lon="14.97785">
    <ele>490</ele>
    <time>2016-07-24T06:58:29Z</time>
    </trkpt>
    <trkpt lat="48.96266" lon="14.97931">
    <ele>493</ele>
    <time>2016-07-24T06:58:55Z</time>
    </trkpt>
    <trkpt lat="48.96165" lon="14.98235">
    <ele>498</ele>
    <time>2016-07-24T06:59:48Z</time>
    </trkpt>
    <trkpt lat="48.9614" lon="14.98279">
    <ele>499</ele>
    <time>2016-07-24T06:59:57Z</time>
    </trkpt>
    <trkpt lat="48.95956" lon="14.98563">
    <ele>506</ele>
    <time>2016-07-24T07:00:59Z</time>
    </trkpt>
    <trkpt lat="48.95956" lon="14.98564">
    <ele>506</ele>
    <time>2016-07-24T07:00:59Z</time>
    </trkpt>
    <trkpt lat="48.95777" lon="14.98835">
    <ele>512</ele>
    <time>2016-07-24T07:01:59Z</time>
    </trkpt>
    <trkpt lat="48.95672" lon="14.99231">
    <ele>519</ele>
    <time>2016-07-24T07:03:05Z</time>
    </trkpt>
    <trkpt lat="48.95668" lon="14.99324">
    <ele>520</ele>
    <time>2016-07-24T07:03:19Z</time>
    </trkpt>
    <trkpt lat="48.9566" lon="14.99373">
    <ele>521</ele>
    <time>2016-07-24T07:03:27Z</time>
    </trkpt>
    <trkpt lat="48.95644" lon="14.99416">
    <ele>522</ele>
    <time>2016-07-24T07:03:35Z</time>
    </trkpt>
    <trkpt lat="48.95639" lon="14.99454">
    <ele>522</ele>
    <time>2016-07-24T07:03:41Z</time>
    </trkpt>
    <trkpt lat="48.95631" lon="14.99495">
    <ele>523</ele>
    <time>2016-07-24T07:03:47Z</time>
    </trkpt>
    <trkpt lat="48.95616" lon="14.9951">
    <ele>523</ele>
    <time>2016-07-24T07:03:52Z</time>
    </trkpt>
    <trkpt lat="48.95557" lon="14.99537">
    <ele>523</ele>
    <time>2016-07-24T07:04:06Z</time>
    </trkpt>
    <trkpt lat="48.95543" lon="14.99553">
    <ele>523</ele>
    <time>2016-07-24T07:04:10Z</time>
    </trkpt>
    <trkpt lat="48.95531" lon="14.99583">
    <ele>523</ele>
    <time>2016-07-24T07:04:16Z</time>
    </trkpt>
    <trkpt lat="48.95533" lon="14.99687">
    <ele>523</ele>
    <time>2016-07-24T07:04:32Z</time>
    </trkpt>
    <trkpt lat="48.9553" lon="14.99728">
    <ele>523</ele>
    <time>2016-07-24T07:04:38Z</time>
    </trkpt>
    <trkpt lat="48.95517" lon="14.99763">
    <ele>523</ele>
    <time>2016-07-24T07:04:45Z</time>
    </trkpt>
    <trkpt lat="48.95453" lon="14.99842">
    <ele>522</ele>
    <time>2016-07-24T07:05:04Z</time>
    </trkpt>
    <trkpt lat="48.95424" lon="14.99937">
    <ele>522</ele>
    <time>2016-07-24T07:05:20Z</time>
    </trkpt>
    <trkpt lat="48.95416" lon="14.99993">
    <ele>522</ele>
    <time>2016-07-24T07:05:29Z</time>
    </trkpt>
    <trkpt lat="48.95416" lon="14.99994">
    <ele>522</ele>
    <time>2016-07-24T07:05:29Z</time>
    </trkpt>
    <trkpt lat="48.95414" lon="15.00073">
    <ele>523</ele>
    <time>2016-07-24T07:05:41Z</time>
    </trkpt>
    <trkpt lat="48.95421" lon="15.00253">
    <ele>523</ele>
    <time>2016-07-24T07:06:09Z</time>
    </trkpt>
    <trkpt lat="48.95418" lon="15.00268">
    <ele>523</ele>
    <time>2016-07-24T07:06:12Z</time>
    </trkpt>
    <trkpt lat="48.95416" lon="15.00279">
    <ele>523</ele>
    <time>2016-07-24T07:06:14Z</time>
    </trkpt>
    <trkpt lat="48.95404" lon="15.00312">
    <ele>524</ele>
    <time>2016-07-24T07:06:19Z</time>
    </trkpt>
    <trkpt lat="48.95369" lon="15.00397">
    <ele>525</ele>
    <time>2016-07-24T07:06:35Z</time>
    </trkpt>
    <trkpt lat="48.95351" lon="15.00434">
    <ele>525</ele>
    <time>2016-07-24T07:06:42Z</time>
    </trkpt>
    <trkpt lat="48.95339" lon="15.00452">
    <ele>525</ele>
    <time>2016-07-24T07:06:46Z</time>
    </trkpt>
    <trkpt lat="48.95276" lon="15.00527">
    <ele>527</ele>
    <time>2016-07-24T07:07:05Z</time>
    </trkpt>
    <trkpt lat="48.95254" lon="15.00663">
    <ele>528</ele>
    <time>2016-07-24T07:07:27Z</time>
    </trkpt>
    <trkpt lat="48.95224" lon="15.008">
    <ele>530</ele>
    <time>2016-07-24T07:07:49Z</time>
    </trkpt>
    <trkpt lat="48.95221" lon="15.00853">
    <ele>531</ele>
    <time>2016-07-24T07:07:57Z</time>
    </trkpt>
    <trkpt lat="48.95221" lon="15.00869">
    <ele>531</ele>
    <time>2016-07-24T07:08:00Z</time>
    </trkpt>
    <trkpt lat="48.95222" lon="15.00869">
    <ele>531</ele>
    <time>2016-07-24T07:08:00Z</time>
    </trkpt>
    <trkpt lat="48.95231" lon="15.01128">
    <ele>537</ele>
    <time>2016-07-24T07:08:40Z</time>
    </trkpt>
    <trkpt lat="48.95227" lon="15.01156">
    <ele>538</ele>
    <time>2016-07-24T07:08:45Z</time>
    </trkpt>
    <trkpt lat="48.95205" lon="15.01195">
    <ele>539</ele>
    <time>2016-07-24T07:08:53Z</time>
    </trkpt>
    <trkpt lat="48.95191" lon="15.01256">
    <ele>541</ele>
    <time>2016-07-24T07:09:03Z</time>
    </trkpt>
    <trkpt lat="48.95185" lon="15.01311">
    <ele>542</ele>
    <time>2016-07-24T07:09:11Z</time>
    </trkpt>
    <trkpt lat="48.95196" lon="15.01414">
    <ele>545</ele>
    <time>2016-07-24T07:09:28Z</time>
    </trkpt>
    <trkpt lat="48.95205" lon="15.01482">
    <ele>547</ele>
    <time>2016-07-24T07:09:38Z</time>
    </trkpt>
    <trkpt lat="48.95206" lon="15.0153">
    <ele>548</ele>
    <time>2016-07-24T07:09:46Z</time>
    </trkpt>
    <trkpt lat="48.95203" lon="15.01569">
    <ele>549</ele>
    <time>2016-07-24T07:09:52Z</time>
    </trkpt>
    <trkpt lat="48.9519" lon="15.01647">
    <ele>551</ele>
    <time>2016-07-24T07:10:04Z</time>
    </trkpt>
    <trkpt lat="48.95175" lon="15.01696">
    <ele>553</ele>
    <time>2016-07-24T07:10:13Z</time>
    </trkpt>
    <trkpt lat="48.95043" lon="15.02024">
    <ele>561</ele>
    <time>2016-07-24T07:11:12Z</time>
    </trkpt>
    <trkpt lat="48.95034" lon="15.02061">
    <ele>562</ele>
    <time>2016-07-24T07:11:18Z</time>
    </trkpt>
    <trkpt lat="48.9498" lon="15.02579">
    <ele>573</ele>
    <time>2016-07-24T07:12:40Z</time>
    </trkpt>
    <trkpt lat="48.94969" lon="15.0264">
    <ele>574</ele>
    <time>2016-07-24T07:12:50Z</time>
    </trkpt>
    <trkpt lat="48.94919" lon="15.02843">
    <ele>572</ele>
    <time>2016-07-24T07:13:23Z</time>
    </trkpt>
    <trkpt lat="48.94877" lon="15.02951">
    <ele>571</ele>
    <time>2016-07-24T07:13:43Z</time>
    </trkpt>
    <trkpt lat="48.94866" lon="15.03006">
    <ele>571</ele>
    <time>2016-07-24T07:13:52Z</time>
    </trkpt>
    <trkpt lat="48.94854" lon="15.0319">
    <ele>570</ele>
    <time>2016-07-24T07:14:20Z</time>
    </trkpt>
    <trkpt lat="48.94852" lon="15.03379">
    <ele>567</ele>
    <time>2016-07-24T07:14:50Z</time>
    </trkpt>
    <trkpt lat="48.94854" lon="15.03472">
    <ele>566</ele>
    <time>2016-07-24T07:15:04Z</time>
    </trkpt>
    <trkpt lat="48.9487" lon="15.03566">
    <ele>564</ele>
    <time>2016-07-24T07:15:19Z</time>
    </trkpt>
    <trkpt lat="48.94869" lon="15.03597">
    <ele>563</ele>
    <time>2016-07-24T07:15:24Z</time>
    </trkpt>
    <trkpt lat="48.9487" lon="15.03598">
    <ele>563</ele>
    <time>2016-07-24T07:15:24Z</time>
    </trkpt>
    <trkpt lat="48.94868" lon="15.03636">
    <ele>562</ele>
    <time>2016-07-24T07:15:30Z</time>
    </trkpt>
    <trkpt lat="48.94864" lon="15.03671">
    <ele>560</ele>
    <time>2016-07-24T07:15:36Z</time>
    </trkpt>
    <trkpt lat="48.94854" lon="15.03714">
    <ele>558</ele>
    <time>2016-07-24T07:15:43Z</time>
    </trkpt>
    <trkpt lat="48.94835" lon="15.03775">
    <ele>555</ele>
    <time>2016-07-24T07:15:53Z</time>
    </trkpt>
    <trkpt lat="48.94811" lon="15.03817">
    <ele>552</ele>
    <time>2016-07-24T07:16:02Z</time>
    </trkpt>
    <trkpt lat="48.94766" lon="15.03884">
    <ele>547</ele>
    <time>2016-07-24T07:16:17Z</time>
    </trkpt>
    <trkpt lat="48.94757" lon="15.03913">
    <ele>546</ele>
    <time>2016-07-24T07:16:22Z</time>
    </trkpt>
    <trkpt lat="48.94746" lon="15.03963">
    <ele>543</ele>
    <time>2016-07-24T07:16:30Z</time>
    </trkpt>
    <trkpt lat="48.94714" lon="15.03959">
    <ele>540</ele>
    <time>2016-07-24T07:16:37Z</time>
    </trkpt>
    <trkpt lat="48.94706" lon="15.03971">
    <ele>539</ele>
    <time>2016-07-24T07:16:40Z</time>
    </trkpt>
    <trkpt lat="48.94698" lon="15.0399">
    <ele>538</ele>
    <time>2016-07-24T07:16:43Z</time>
    </trkpt>
    <trkpt lat="48.94693" lon="15.04009">
    <ele>538</ele>
    <time>2016-07-24T07:16:47Z</time>
    </trkpt>
    <trkpt lat="48.94677" lon="15.04037">
    <ele>536</ele>
    <time>2016-07-24T07:16:52Z</time>
    </trkpt>
    <trkpt lat="48.94669" lon="15.0407">
    <ele>535</ele>
    <time>2016-07-24T07:16:58Z</time>
    </trkpt>
    <trkpt lat="48.94656" lon="15.04077">
    <ele>534</ele>
    <time>2016-07-24T07:17:01Z</time>
    </trkpt>
    <trkpt lat="48.94616" lon="15.04107">
    <ele>532</ele>
    <time>2016-07-24T07:17:12Z</time>
    </trkpt>
    <trkpt lat="48.94584" lon="15.04146">
    <ele>530</ele>
    <time>2016-07-24T07:17:21Z</time>
    </trkpt>
    <trkpt lat="48.9456" lon="15.04153">
    <ele>528</ele>
    <time>2016-07-24T07:17:27Z</time>
    </trkpt>
    <trkpt lat="48.94559" lon="15.04154">
    <ele>528</ele>
    <time>2016-07-24T07:17:27Z</time>
    </trkpt>
    <trkpt lat="48.9451" lon="15.04138">
    <ele>526</ele>
    <time>2016-07-24T07:17:39Z</time>
    </trkpt>
    <trkpt lat="48.94472" lon="15.04137">
    <ele>524</ele>
    <time>2016-07-24T07:17:48Z</time>
    </trkpt>
    <trkpt lat="48.94442" lon="15.04146">
    <ele>523</ele>
    <time>2016-07-24T07:17:55Z</time>
    </trkpt>
    <trkpt lat="48.94429" lon="15.04153">
    <ele>523</ele>
    <time>2016-07-24T07:17:58Z</time>
    </trkpt>
    <trkpt lat="48.94423" lon="15.04165">
    <ele>522</ele>
    <time>2016-07-24T07:18:01Z</time>
    </trkpt>
    <trkpt lat="48.94424" lon="15.04176">
    <ele>522</ele>
    <time>2016-07-24T07:18:02Z</time>
    </trkpt>
    <trkpt lat="48.94433" lon="15.04203">
    <ele>522</ele>
    <time>2016-07-24T07:18:07Z</time>
    </trkpt>
    <trkpt lat="48.9441" lon="15.04203">
    <ele>521</ele>
    <time>2016-07-24T07:18:13Z</time>
    </trkpt>
    <trkpt lat="48.94368" lon="15.04192">
    <ele>521</ele>
    <time>2016-07-24T07:18:23Z</time>
    </trkpt>
    <trkpt lat="48.94356" lon="15.04185">
    <ele>521</ele>
    <time>2016-07-24T07:18:26Z</time>
    </trkpt>
    <trkpt lat="48.94345" lon="15.04184">
    <ele>521</ele>
    <time>2016-07-24T07:18:28Z</time>
    </trkpt>
    <trkpt lat="48.94328" lon="15.04188">
    <ele>521</ele>
    <time>2016-07-24T07:18:32Z</time>
    </trkpt>
    <trkpt lat="48.94311" lon="15.04197">
    <ele>521</ele>
    <time>2016-07-24T07:18:37Z</time>
    </trkpt>
    <trkpt lat="48.94277" lon="15.04193">
    <ele>521</ele>
    <time>2016-07-24T07:18:45Z</time>
    </trkpt>
    <trkpt lat="48.94237" lon="15.04179">
    <ele>521</ele>
    <time>2016-07-24T07:18:54Z</time>
    </trkpt>
    <trkpt lat="48.94209" lon="15.04152">
    <ele>522</ele>
    <time>2016-07-24T07:19:02Z</time>
    </trkpt>
    <trkpt lat="48.94191" lon="15.04121">
    <ele>522</ele>
    <time>2016-07-24T07:19:08Z</time>
    </trkpt>
    <trkpt lat="48.94169" lon="15.04121">
    <ele>521</ele>
    <time>2016-07-24T07:19:14Z</time>
    </trkpt>
    <trkpt lat="48.94152" lon="15.04096">
    <ele>521</ele>
    <time>2016-07-24T07:19:19Z</time>
    </trkpt>
    <trkpt lat="48.93965" lon="15.04022">
    <ele>520</ele>
    <time>2016-07-24T07:20:05Z</time>
    </trkpt>
    <trkpt lat="48.93881" lon="15.03975">
    <ele>519</ele>
    <time>2016-07-24T07:20:26Z</time>
    </trkpt>
    <trkpt lat="48.93854" lon="15.03953">
    <ele>519</ele>
    <time>2016-07-24T07:20:33Z</time>
    </trkpt>
    <trkpt lat="48.93829" lon="15.03922">
    <ele>518</ele>
    <time>2016-07-24T07:20:41Z</time>
    </trkpt>
    <trkpt lat="48.93806" lon="15.03884">
    <ele>518</ele>
    <time>2016-07-24T07:20:49Z</time>
    </trkpt>
    <trkpt lat="48.93782" lon="15.03863">
    <ele>518</ele>
    <time>2016-07-24T07:20:55Z</time>
    </trkpt>
    <trkpt lat="48.93718" lon="15.03835">
    <ele>517</ele>
    <time>2016-07-24T07:21:11Z</time>
    </trkpt>
    <trkpt lat="48.9363" lon="15.03773">
    <ele>516</ele>
    <time>2016-07-24T07:21:34Z</time>
    </trkpt>
    <trkpt lat="48.93603" lon="15.0376">
    <ele>516</ele>
    <time>2016-07-24T07:21:40Z</time>
    </trkpt>
    <trkpt lat="48.93602" lon="15.0376">
    <ele>516</ele>
    <time>2016-07-24T07:21:41Z</time>
    </trkpt>
    <trkpt lat="48.93551" lon="15.03737">
    <ele>515</ele>
    <time>2016-07-24T07:21:53Z</time>
    </trkpt>
    <trkpt lat="48.93426" lon="15.03638">
    <ele>513</ele>
    <time>2016-07-24T07:22:26Z</time>
    </trkpt>
    <trkpt lat="48.93399" lon="15.03629">
    <ele>513</ele>
    <time>2016-07-24T07:22:33Z</time>
    </trkpt>
    <trkpt lat="48.93369" lon="15.03633">
    <ele>513</ele>
    <time>2016-07-24T07:22:40Z</time>
    </trkpt>
    <trkpt lat="48.93338" lon="15.03648">
    <ele>513</ele>
    <time>2016-07-24T07:22:48Z</time>
    </trkpt>
    <trkpt lat="48.93317" lon="15.03668">
    <ele>513</ele>
    <time>2016-07-24T07:22:53Z</time>
    </trkpt>
    <trkpt lat="48.93295" lon="15.03699">
    <ele>513</ele>
    <time>2016-07-24T07:23:00Z</time>
    </trkpt>
    <trkpt lat="48.93286" lon="15.03719">
    <ele>513</ele>
    <time>2016-07-24T07:23:04Z</time>
    </trkpt>
    <trkpt lat="48.93246" lon="15.03828">
    <ele>514</ele>
    <time>2016-07-24T07:23:24Z</time>
    </trkpt>
    <trkpt lat="48.93224" lon="15.03871">
    <ele>514</ele>
    <time>2016-07-24T07:23:32Z</time>
    </trkpt>
    <trkpt lat="48.9321" lon="15.0389">
    <ele>514</ele>
    <time>2016-07-24T07:23:36Z</time>
    </trkpt>
    <trkpt lat="48.93186" lon="15.03913">
    <ele>514</ele>
    <time>2016-07-24T07:23:43Z</time>
    </trkpt>
    <trkpt lat="48.93163" lon="15.03929">
    <ele>515</ele>
    <time>2016-07-24T07:23:49Z</time>
    </trkpt>
    <trkpt lat="48.93143" lon="15.03938">
    <ele>515</ele>
    <time>2016-07-24T07:23:54Z</time>
    </trkpt>
    <trkpt lat="48.93121" lon="15.03943">
    <ele>515</ele>
    <time>2016-07-24T07:23:59Z</time>
    </trkpt>
    <trkpt lat="48.92982" lon="15.03959">
    <ele>518</ele>
    <time>2016-07-24T07:24:32Z</time>
    </trkpt>
    <trkpt lat="48.9296" lon="15.03956">
    <ele>518</ele>
    <time>2016-07-24T07:24:37Z</time>
    </trkpt>
    <trkpt lat="48.9294" lon="15.03947">
    <ele>519</ele>
    <time>2016-07-24T07:24:42Z</time>
    </trkpt>
    <trkpt lat="48.92914" lon="15.03925">
    <ele>520</ele>
    <time>2016-07-24T07:24:49Z</time>
    </trkpt>
    <trkpt lat="48.92873" lon="15.03885">
    <ele>521</ele>
    <time>2016-07-24T07:25:01Z</time>
    </trkpt>
    <trkpt lat="48.92854" lon="15.03879">
    <ele>522</ele>
    <time>2016-07-24T07:25:05Z</time>
    </trkpt>
    <trkpt lat="48.92834" lon="15.0388">
    <ele>522</ele>
    <time>2016-07-24T07:25:10Z</time>
    </trkpt>
    <trkpt lat="48.92815" lon="15.0389">
    <ele>523</ele>
    <time>2016-07-24T07:25:15Z</time>
    </trkpt>
    <trkpt lat="48.92792" lon="15.03911">
    <ele>524</ele>
    <time>2016-07-24T07:25:21Z</time>
    </trkpt>
    <trkpt lat="48.92742" lon="15.03964">
    <ele>526</ele>
    <time>2016-07-24T07:25:35Z</time>
    </trkpt>
    <trkpt lat="48.92726" lon="15.03975">
    <ele>526</ele>
    <time>2016-07-24T07:25:39Z</time>
    </trkpt>
    <trkpt lat="48.92705" lon="15.03982">
    <ele>527</ele>
    <time>2016-07-24T07:25:45Z</time>
    </trkpt>
    <trkpt lat="48.92706" lon="15.03983">
    <ele>527</ele>
    <time>2016-07-24T07:25:45Z</time>
    </trkpt>
    <trkpt lat="48.92648" lon="15.03993">
    <ele>526</ele>
    <time>2016-07-24T07:25:59Z</time>
    </trkpt>
    <trkpt lat="48.9255" lon="15.04014">
    <ele>525</ele>
    <time>2016-07-24T07:26:22Z</time>
    </trkpt>
    <trkpt lat="48.92456" lon="15.04031">
    <ele>524</ele>
    <time>2016-07-24T07:26:44Z</time>
    </trkpt>
    <trkpt lat="48.92362" lon="15.04042">
    <ele>522</ele>
    <time>2016-07-24T07:27:06Z</time>
    </trkpt>
    <trkpt lat="48.92321" lon="15.04048">
    <ele>522</ele>
    <time>2016-07-24T07:27:16Z</time>
    </trkpt>
    <trkpt lat="48.92292" lon="15.04061">
    <ele>522</ele>
    <time>2016-07-24T07:27:23Z</time>
    </trkpt>
    <trkpt lat="48.92247" lon="15.04107">
    <ele>521</ele>
    <time>2016-07-24T07:27:36Z</time>
    </trkpt>
    <trkpt lat="48.92227" lon="15.04121">
    <ele>521</ele>
    <time>2016-07-24T07:27:41Z</time>
    </trkpt>
    <trkpt lat="48.92125" lon="15.04167">
    <ele>520</ele>
    <time>2016-07-24T07:28:06Z</time>
    </trkpt>
    <trkpt lat="48.92073" lon="15.04186">
    <ele>520</ele>
    <time>2016-07-24T07:28:19Z</time>
    </trkpt>
    <trkpt lat="48.92047" lon="15.04194">
    <ele>520</ele>
    <time>2016-07-24T07:28:25Z</time>
    </trkpt>
    <trkpt lat="48.92022" lon="15.04199">
    <ele>520</ele>
    <time>2016-07-24T07:28:31Z</time>
    </trkpt>
    <trkpt lat="48.91993" lon="15.04199">
    <ele>520</ele>
    <time>2016-07-24T07:28:38Z</time>
    </trkpt>
    <trkpt lat="48.91963" lon="15.04193">
    <ele>520</ele>
    <time>2016-07-24T07:28:45Z</time>
    </trkpt>
    <trkpt lat="48.91793" lon="15.04137">
    <ele>519</ele>
    <time>2016-07-24T07:29:26Z</time>
    </trkpt>
    <trkpt lat="48.91563" lon="15.04065">
    <ele>519</ele>
    <time>2016-07-24T07:30:21Z</time>
    </trkpt>
    <trkpt lat="48.91516" lon="15.04053">
    <ele>518</ele>
    <time>2016-07-24T07:30:32Z</time>
    </trkpt>
    <trkpt lat="48.91493" lon="15.04051">
    <ele>518</ele>
    <time>2016-07-24T07:30:38Z</time>
    </trkpt>
    <trkpt lat="48.91468" lon="15.04054">
    <ele>518</ele>
    <time>2016-07-24T07:30:44Z</time>
    </trkpt>
    <trkpt lat="48.91395" lon="15.04074">
    <ele>518</ele>
    <time>2016-07-24T07:31:01Z</time>
    </trkpt>
    <trkpt lat="48.91273" lon="15.04102">
    <ele>518</ele>
    <time>2016-07-24T07:31:30Z</time>
    </trkpt>
    <trkpt lat="48.91163" lon="15.04115">
    <ele>518</ele>
    <time>2016-07-24T07:31:56Z</time>
    </trkpt>
    <trkpt lat="48.91052" lon="15.0412">
    <ele>518</ele>
    <time>2016-07-24T07:32:22Z</time>
    </trkpt>
    <trkpt lat="48.91029" lon="15.04118">
    <ele>518</ele>
    <time>2016-07-24T07:32:28Z</time>
    </trkpt>
    <trkpt lat="48.90987" lon="15.04103">
    <ele>519</ele>
    <time>2016-07-24T07:32:38Z</time>
    </trkpt>
    <trkpt lat="48.90967" lon="15.04088">
    <ele>519</ele>
    <time>2016-07-24T07:32:43Z</time>
    </trkpt>
    <trkpt lat="48.90944" lon="15.04057">
    <ele>519</ele>
    <time>2016-07-24T07:32:51Z</time>
    </trkpt>
    <trkpt lat="48.90923" lon="15.0402">
    <ele>520</ele>
    <time>2016-07-24T07:32:58Z</time>
    </trkpt>
    <trkpt lat="48.90871" lon="15.03898">
    <ele>521</ele>
    <time>2016-07-24T07:33:21Z</time>
    </trkpt>
    <trkpt lat="48.90842" lon="15.0384">
    <ele>522</ele>
    <time>2016-07-24T07:33:32Z</time>
    </trkpt>
    <trkpt lat="48.9083" lon="15.03823">
    <ele>522</ele>
    <time>2016-07-24T07:33:36Z</time>
    </trkpt>
    <trkpt lat="48.90816" lon="15.03874">
    <ele>524</ele>
    <time>2016-07-24T07:33:44Z</time>
    </trkpt>
    <trkpt lat="48.90817" lon="15.03874">
    <ele>524</ele>
    <time>2016-07-24T07:33:45Z</time>
    </trkpt>
    <trkpt lat="48.90766" lon="15.04061">
    <ele>528</ele>
    <time>2016-07-24T07:34:16Z</time>
    </trkpt>
    <trkpt lat="48.90764" lon="15.04091">
    <ele>528</ele>
    <time>2016-07-24T07:34:21Z</time>
    </trkpt>
    <trkpt lat="48.90763" lon="15.0414">
    <ele>530</ele>
    <time>2016-07-24T07:34:28Z</time>
    </trkpt>
    <trkpt lat="48.90757" lon="15.04168">
    <ele>531</ele>
    <time>2016-07-24T07:34:33Z</time>
    </trkpt>
    <trkpt lat="48.90745" lon="15.0421">
    <ele>532</ele>
    <time>2016-07-24T07:34:40Z</time>
    </trkpt>
    <trkpt lat="48.90722" lon="15.04272">
    <ele>534</ele>
    <time>2016-07-24T07:34:51Z</time>
    </trkpt>
    <trkpt lat="48.90706" lon="15.0434">
    <ele>536</ele>
    <time>2016-07-24T07:35:02Z</time>
    </trkpt>
    <trkpt lat="48.90691" lon="15.04396">
    <ele>537</ele>
    <time>2016-07-24T07:35:12Z</time>
    </trkpt>
    <trkpt lat="48.90677" lon="15.04437">
    <ele>538</ele>
    <time>2016-07-24T07:35:19Z</time>
    </trkpt>
    <trkpt lat="48.90606" lon="15.04615">
    <ele>542</ele>
    <time>2016-07-24T07:35:51Z</time>
    </trkpt>
    <trkpt lat="48.90591" lon="15.04731">
    <ele>545</ele>
    <time>2016-07-24T07:36:09Z</time>
    </trkpt>
    <trkpt lat="48.90573" lon="15.04834">
    <ele>547</ele>
    <time>2016-07-24T07:36:26Z</time>
    </trkpt>
    <trkpt lat="48.90533" lon="15.04979">
    <ele>549</ele>
    <time>2016-07-24T07:36:50Z</time>
    </trkpt>
    <trkpt lat="48.90504" lon="15.05143">
    <ele>551</ele>
    <time>2016-07-24T07:37:17Z</time>
    </trkpt>
    <trkpt lat="48.90486" lon="15.05209">
    <ele>552</ele>
    <time>2016-07-24T07:37:28Z</time>
    </trkpt>
    <trkpt lat="48.9042" lon="15.05354">
    <ele>554</ele>
    <time>2016-07-24T07:37:55Z</time>
    </trkpt>
    <trkpt lat="48.90406" lon="15.05408">
    <ele>554</ele>
    <time>2016-07-24T07:38:04Z</time>
    </trkpt>
    <trkpt lat="48.90399" lon="15.05466">
    <ele>554</ele>
    <time>2016-07-24T07:38:13Z</time>
    </trkpt>
    <trkpt lat="48.90392" lon="15.05665">
    <ele>555</ele>
    <time>2016-07-24T07:38:44Z</time>
    </trkpt>
    <trkpt lat="48.90383" lon="15.05745">
    <ele>555</ele>
    <time>2016-07-24T07:38:57Z</time>
    </trkpt>
    <trkpt lat="48.90378" lon="15.05774">
    <ele>555</ele>
    <time>2016-07-24T07:39:02Z</time>
    </trkpt>
    <trkpt lat="48.90379" lon="15.05775">
    <ele>555</ele>
    <time>2016-07-24T07:39:02Z</time>
    </trkpt>
    <trkpt lat="48.90342" lon="15.05986">
    <ele>558</ele>
    <time>2016-07-24T07:39:36Z</time>
    </trkpt>
    <trkpt lat="48.90282" lon="15.06243">
    <ele>562</ele>
    <time>2016-07-24T07:40:18Z</time>
    </trkpt>
    <trkpt lat="48.90277" lon="15.06289">
    <ele>562</ele>
    <time>2016-07-24T07:40:25Z</time>
    </trkpt>
    <trkpt lat="48.90275" lon="15.06366">
    <ele>563</ele>
    <time>2016-07-24T07:40:37Z</time>
    </trkpt>
    <trkpt lat="48.90282" lon="15.06446">
    <ele>564</ele>
    <time>2016-07-24T07:40:50Z</time>
    </trkpt>
    <trkpt lat="48.9028" lon="15.06474">
    <ele>564</ele>
    <time>2016-07-24T07:40:54Z</time>
    </trkpt>
    <trkpt lat="48.90273" lon="15.065">
    <ele>565</ele>
    <time>2016-07-24T07:40:58Z</time>
    </trkpt>
    <trkpt lat="48.90229" lon="15.06561">
    <ele>566</ele>
    <time>2016-07-24T07:41:13Z</time>
    </trkpt>
    <trkpt lat="48.90222" lon="15.06584">
    <ele>566</ele>
    <time>2016-07-24T07:41:16Z</time>
    </trkpt>
    <trkpt lat="48.90199" lon="15.06689">
    <ele>567</ele>
    <time>2016-07-24T07:41:34Z</time>
    </trkpt>
    <trkpt lat="48.90174" lon="15.06899">
    <ele>568</ele>
    <time>2016-07-24T07:42:07Z</time>
    </trkpt>
    <trkpt lat="48.90176" lon="15.0699">
    <ele>569</ele>
    <time>2016-07-24T07:42:21Z</time>
    </trkpt>
    <trkpt lat="48.9017" lon="15.0702">
    <ele>569</ele>
    <time>2016-07-24T07:42:26Z</time>
    </trkpt>
    <trkpt lat="48.90125" lon="15.07151">
    <ele>570</ele>
    <time>2016-07-24T07:42:49Z</time>
    </trkpt>
    <trkpt lat="48.90055" lon="15.07261">
    <ele>571</ele>
    <time>2016-07-24T07:43:12Z</time>
    </trkpt>
    <trkpt lat="48.9001" lon="15.07453">
    <ele>573</ele>
    <time>2016-07-24T07:43:44Z</time>
    </trkpt>
    <trkpt lat="48.8998" lon="15.07557">
    <ele>574</ele>
    <time>2016-07-24T07:44:02Z</time>
    </trkpt>
    <trkpt lat="48.89945" lon="15.0766">
    <ele>574</ele>
    <time>2016-07-24T07:44:20Z</time>
    </trkpt>
    <trkpt lat="48.89918" lon="15.0775">
    <ele>575</ele>
    <time>2016-07-24T07:44:35Z</time>
    </trkpt>
    <trkpt lat="48.89906" lon="15.078">
    <ele>576</ele>
    <time>2016-07-24T07:44:43Z</time>
    </trkpt>
    <trkpt lat="48.899" lon="15.07835">
    <ele>576</ele>
    <time>2016-07-24T07:44:49Z</time>
    </trkpt>
    <trkpt lat="48.89895" lon="15.07894">
    <ele>576</ele>
    <time>2016-07-24T07:44:58Z</time>
    </trkpt>
    <trkpt lat="48.89895" lon="15.08027">
    <ele>576</ele>
    <time>2016-07-24T07:45:19Z</time>
    </trkpt>
    <trkpt lat="48.89895" lon="15.08028">
    <ele>576</ele>
    <time>2016-07-24T07:45:19Z</time>
    </trkpt>
    <trkpt lat="48.89895" lon="15.08138">
    <ele>577</ele>
    <time>2016-07-24T07:45:36Z</time>
    </trkpt>
    <trkpt lat="48.89889" lon="15.0818">
    <ele>577</ele>
    <time>2016-07-24T07:45:43Z</time>
    </trkpt>
    <trkpt lat="48.89877" lon="15.08214">
    <ele>577</ele>
    <time>2016-07-24T07:45:49Z</time>
    </trkpt>
    <trkpt lat="48.89855" lon="15.08255">
    <ele>577</ele>
    <time>2016-07-24T07:45:57Z</time>
    </trkpt>
    <trkpt lat="48.89754" lon="15.0842">
    <ele>577</ele>
    <time>2016-07-24T07:46:32Z</time>
    </trkpt>
    <trkpt lat="48.89726" lon="15.0848">
    <ele>576</ele>
    <time>2016-07-24T07:46:43Z</time>
    </trkpt>
    <trkpt lat="48.89664" lon="15.08647">
    <ele>575</ele>
    <time>2016-07-24T07:47:13Z</time>
    </trkpt>
    <trkpt lat="48.89592" lon="15.08806">
    <ele>574</ele>
    <time>2016-07-24T07:47:43Z</time>
    </trkpt>
    <trkpt lat="48.89532" lon="15.08901">
    <ele>574</ele>
    <time>2016-07-24T07:48:03Z</time>
    </trkpt>
    <trkpt lat="48.89447" lon="15.08991">
    <ele>573</ele>
    <time>2016-07-24T07:48:28Z</time>
    </trkpt>
    <trkpt lat="48.89327" lon="15.09075">
    <ele>572</ele>
    <time>2016-07-24T07:48:59Z</time>
    </trkpt>
    <trkpt lat="48.89306" lon="15.09088">
    <ele>572</ele>
    <time>2016-07-24T07:49:04Z</time>
    </trkpt>
    <trkpt lat="48.89308" lon="15.09147">
    <ele>571</ele>
    <time>2016-07-24T07:49:13Z</time>
    </trkpt>
    <trkpt lat="48.89312" lon="15.09171">
    <ele>571</ele>
    <time>2016-07-24T07:49:17Z</time>
    </trkpt>
    <trkpt lat="48.89259" lon="15.09173">
    <ele>571</ele>
    <time>2016-07-24T07:49:30Z</time>
    </trkpt>
    <trkpt lat="48.89199" lon="15.09179">
    <ele>570</ele>
    <time>2016-07-24T07:49:44Z</time>
    </trkpt>
    <trkpt lat="48.89184" lon="15.09184">
    <ele>570</ele>
    <time>2016-07-24T07:49:48Z</time>
    </trkpt>
    <trkpt lat="48.89184" lon="15.09184">
    <ele>570</ele>
    <time>2016-07-24T07:49:48Z</time>
    </trkpt>
    <trkpt lat="48.89149" lon="15.09194">
    <ele>569</ele>
    <time>2016-07-24T07:49:56Z</time>
    </trkpt>
    <trkpt lat="48.89108" lon="15.09217">
    <ele>568</ele>
    <time>2016-07-24T07:50:06Z</time>
    </trkpt>
    <trkpt lat="48.89092" lon="15.09166">
    <ele>568</ele>
    <time>2016-07-24T07:50:15Z</time>
    </trkpt>
    <trkpt lat="48.89039" lon="15.09204">
    <ele>566</ele>
    <time>2016-07-24T07:50:29Z</time>
    </trkpt>
    <trkpt lat="48.89013" lon="15.09231">
    <ele>565</ele>
    <time>2016-07-24T07:50:36Z</time>
    </trkpt>
    <trkpt lat="48.88973" lon="15.09287">
    <ele>564</ele>
    <time>2016-07-24T07:50:49Z</time>
    </trkpt>
    <trkpt lat="48.88926" lon="15.09339">
    <ele>562</ele>
    <time>2016-07-24T07:51:03Z</time>
    </trkpt>
    <trkpt lat="48.88883" lon="15.09376">
    <ele>560</ele>
    <time>2016-07-24T07:51:14Z</time>
    </trkpt>
    <trkpt lat="48.88842" lon="15.09396">
    <ele>559</ele>
    <time>2016-07-24T07:51:25Z</time>
    </trkpt>
    <trkpt lat="48.88735" lon="15.09428">
    <ele>555</ele>
    <time>2016-07-24T07:51:50Z</time>
    </trkpt>
    <trkpt lat="48.88698" lon="15.09433">
    <ele>553</ele>
    <time>2016-07-24T07:51:59Z</time>
    </trkpt>
    <trkpt lat="48.88675" lon="15.09452">
    <ele>552</ele>
    <time>2016-07-24T07:52:05Z</time>
    </trkpt>
    <trkpt lat="48.88657" lon="15.0948">
    <ele>551</ele>
    <time>2016-07-24T07:52:11Z</time>
    </trkpt>
    <trkpt lat="48.88643" lon="15.09512">
    <ele>550</ele>
    <time>2016-07-24T07:52:17Z</time>
    </trkpt>
    <trkpt lat="48.88637" lon="15.0952">
    <ele>550</ele>
    <time>2016-07-24T07:52:19Z</time>
    </trkpt>
    <trkpt lat="48.88629" lon="15.09523">
    <ele>550</ele>
    <time>2016-07-24T07:52:21Z</time>
    </trkpt>
    <trkpt lat="48.88617" lon="15.09524">
    <ele>549</ele>
    <time>2016-07-24T07:52:24Z</time>
    </trkpt>
    <trkpt lat="48.88582" lon="15.0951">
    <ele>548</ele>
    <time>2016-07-24T07:52:32Z</time>
    </trkpt>
    <trkpt lat="48.88567" lon="15.09507">
    <ele>548</ele>
    <time>2016-07-24T07:52:36Z</time>
    </trkpt>
    <trkpt lat="48.88556" lon="15.09526">
    <ele>548</ele>
    <time>2016-07-24T07:52:40Z</time>
    </trkpt>
    <trkpt lat="48.88552" lon="15.09536">
    <ele>548</ele>
    <time>2016-07-24T07:52:42Z</time>
    </trkpt>
    <trkpt lat="48.88549" lon="15.09551">
    <ele>547</ele>
    <time>2016-07-24T07:52:44Z</time>
    </trkpt>
    <trkpt lat="48.88549" lon="15.09564">
    <ele>547</ele>
    <time>2016-07-24T07:52:46Z</time>
    </trkpt>
    <trkpt lat="48.88554" lon="15.09588">
    <ele>548</ele>
    <time>2016-07-24T07:52:50Z</time>
    </trkpt>
    <trkpt lat="48.88573" lon="15.09618">
    <ele>548</ele>
    <time>2016-07-24T07:52:56Z</time>
    </trkpt>
    <trkpt lat="48.88607" lon="15.09663">
    <ele>549</ele>
    <time>2016-07-24T07:53:07Z</time>
    </trkpt>
    <trkpt lat="48.88611" lon="15.09687">
    <ele>550</ele>
    <time>2016-07-24T07:53:11Z</time>
    </trkpt>
    <trkpt lat="48.88613" lon="15.09713">
    <ele>550</ele>
    <time>2016-07-24T07:53:15Z</time>
    </trkpt>
    <trkpt lat="48.88611" lon="15.09723">
    <ele>551</ele>
    <time>2016-07-24T07:53:17Z</time>
    </trkpt>
    <trkpt lat="48.88606" lon="15.09737">
    <ele>551</ele>
    <time>2016-07-24T07:53:19Z</time>
    </trkpt>
    <trkpt lat="48.88595" lon="15.09756">
    <ele>551</ele>
    <time>2016-07-24T07:53:23Z</time>
    </trkpt>
    <trkpt lat="48.88573" lon="15.09776">
    <ele>552</ele>
    <time>2016-07-24T07:53:29Z</time>
    </trkpt>
    <trkpt lat="48.88439" lon="15.09921">
    <ele>558</ele>
    <time>2016-07-24T07:54:08Z</time>
    </trkpt>
    <trkpt lat="48.88413" lon="15.09991">
    <ele>559</ele>
    <time>2016-07-24T07:54:20Z</time>
    </trkpt>
    <trkpt lat="48.88408" lon="15.09997">
    <ele>560</ele>
    <time>2016-07-24T07:54:22Z</time>
    </trkpt>
    <trkpt lat="48.88408" lon="15.09998">
    <ele>560</ele>
    <time>2016-07-24T07:54:22Z</time>
    </trkpt>
    <trkpt lat="48.8835" lon="15.10099">
    <ele>562</ele>
    <time>2016-07-24T07:54:43Z</time>
    </trkpt>
    <trkpt lat="48.8831" lon="15.10176">
    <ele>564</ele>
    <time>2016-07-24T07:54:58Z</time>
    </trkpt>
    <trkpt lat="48.88221" lon="15.10369">
    <ele>567</ele>
    <time>2016-07-24T07:55:35Z</time>
    </trkpt>
    <trkpt lat="48.88093" lon="15.10564">
    <ele>570</ele>
    <time>2016-07-24T07:56:17Z</time>
    </trkpt>
    <trkpt lat="48.88026" lon="15.10646">
    <ele>572</ele>
    <time>2016-07-24T07:56:38Z</time>
    </trkpt>
    <trkpt lat="48.87847" lon="15.10821">
    <ele>576</ele>
    <time>2016-07-24T07:57:28Z</time>
    </trkpt>
    <trkpt lat="48.87746" lon="15.10915">
    <ele>577</ele>
    <time>2016-07-24T07:57:56Z</time>
    </trkpt>
    <trkpt lat="48.87626" lon="15.10991">
    <ele>578</ele>
    <time>2016-07-24T07:58:26Z</time>
    </trkpt>
    <trkpt lat="48.87404" lon="15.11122">
    <ele>578</ele>
    <time>2016-07-24T07:59:22Z</time>
    </trkpt>
    <trkpt lat="48.87357" lon="15.11164">
    <ele>578</ele>
    <time>2016-07-24T07:59:35Z</time>
    </trkpt>
    <trkpt lat="48.87302" lon="15.11254">
    <ele>578</ele>
    <time>2016-07-24T07:59:54Z</time>
    </trkpt>
    <trkpt lat="48.87255" lon="15.11356">
    <ele>578</ele>
    <time>2016-07-24T08:00:14Z</time>
    </trkpt>
    <trkpt lat="48.87223" lon="15.11435">
    <ele>577</ele>
    <time>2016-07-24T08:00:28Z</time>
    </trkpt>
    <trkpt lat="48.87205" lon="15.11494">
    <ele>577</ele>
    <time>2016-07-24T08:00:38Z</time>
    </trkpt>
    <trkpt lat="48.87201" lon="15.11535">
    <ele>576</ele>
    <time>2016-07-24T08:00:44Z</time>
    </trkpt>
    <trkpt lat="48.87208" lon="15.11593">
    <ele>576</ele>
    <time>2016-07-24T08:00:54Z</time>
    </trkpt>
    <trkpt lat="48.8721" lon="15.11639">
    <ele>576</ele>
    <time>2016-07-24T08:01:01Z</time>
    </trkpt>
    <trkpt lat="48.87207" lon="15.11668">
    <ele>575</ele>
    <time>2016-07-24T08:01:05Z</time>
    </trkpt>
    <trkpt lat="48.87184" lon="15.11812">
    <ele>573</ele>
    <time>2016-07-24T08:01:28Z</time>
    </trkpt>
    <trkpt lat="48.8718" lon="15.1182">
    <ele>573</ele>
    <time>2016-07-24T08:01:30Z</time>
    </trkpt>
    <trkpt lat="48.87168" lon="15.11835">
    <ele>573</ele>
    <time>2016-07-24T08:01:34Z</time>
    </trkpt>
    <trkpt lat="48.87164" lon="15.1185">
    <ele>573</ele>
    <time>2016-07-24T08:01:36Z</time>
    </trkpt>
    <trkpt lat="48.87156" lon="15.11904">
    <ele>572</ele>
    <time>2016-07-24T08:01:45Z</time>
    </trkpt>
    <trkpt lat="48.87152" lon="15.11968">
    <ele>571</ele>
    <time>2016-07-24T08:01:55Z</time>
    </trkpt>
    <trkpt lat="48.87132" lon="15.12031">
    <ele>569</ele>
    <time>2016-07-24T08:02:06Z</time>
    </trkpt>
    <trkpt lat="48.87106" lon="15.12097">
    <ele>568</ele>
    <time>2016-07-24T08:02:17Z</time>
    </trkpt>
    <trkpt lat="48.87087" lon="15.12134">
    <ele>567</ele>
    <time>2016-07-24T08:02:25Z</time>
    </trkpt>
    <trkpt lat="48.87059" lon="15.12171">
    <ele>567</ele>
    <time>2016-07-24T08:02:34Z</time>
    </trkpt>
    <trkpt lat="48.87037" lon="15.12188">
    <ele>566</ele>
    <time>2016-07-24T08:02:39Z</time>
    </trkpt>
    <trkpt lat="48.87024" lon="15.12195">
    <ele>566</ele>
    <time>2016-07-24T08:02:43Z</time>
    </trkpt>
    <trkpt lat="48.86991" lon="15.12202">
    <ele>565</ele>
    <time>2016-07-24T08:02:50Z</time>
    </trkpt>
    <trkpt lat="48.86956" lon="15.12199">
    <ele>565</ele>
    <time>2016-07-24T08:02:59Z</time>
    </trkpt>
    <trkpt lat="48.86971" lon="15.12212">
    <ele>565</ele>
    <time>2016-07-24T08:03:03Z</time>
    </trkpt>
    <trkpt lat="48.86983" lon="15.12226">
    <ele>564</ele>
    <time>2016-07-24T08:03:06Z</time>
    </trkpt>
    <trkpt lat="48.86984" lon="15.1223">
    <ele>564</ele>
    <time>2016-07-24T08:03:07Z</time>
    </trkpt>
    <trkpt lat="48.86984" lon="15.12229">
    <ele>564</ele>
    <time>2016-07-24T08:03:07Z</time>
    </trkpt>
    <trkpt lat="48.86991" lon="15.12266">
    <ele>564</ele>
    <time>2016-07-24T08:03:13Z</time>
    </trkpt>
    <trkpt lat="48.86982" lon="15.12306">
    <ele>564</ele>
    <time>2016-07-24T08:03:20Z</time>
    </trkpt>
    <trkpt lat="48.86972" lon="15.12306">
    <ele>564</ele>
    <time>2016-07-24T08:03:22Z</time>
    </trkpt>
    <trkpt lat="48.86931" lon="15.12383">
    <ele>564</ele>
    <time>2016-07-24T08:03:37Z</time>
    </trkpt>
    <trkpt lat="48.86911" lon="15.12403">
    <ele>564</ele>
    <time>2016-07-24T08:03:43Z</time>
    </trkpt>
    <trkpt lat="48.8685" lon="15.12417">
    <ele>564</ele>
    <time>2016-07-24T08:03:58Z</time>
    </trkpt>
    <trkpt lat="48.86829" lon="15.12423">
    <ele>563</ele>
    <time>2016-07-24T08:04:03Z</time>
    </trkpt>
    <trkpt lat="48.8681" lon="15.1242">
    <ele>563</ele>
    <time>2016-07-24T08:04:07Z</time>
    </trkpt>
    <trkpt lat="48.86671" lon="15.1236">
    <ele>562</ele>
    <time>2016-07-24T08:04:41Z</time>
    </trkpt>
    <trkpt lat="48.86646" lon="15.12346">
    <ele>562</ele>
    <time>2016-07-24T08:04:47Z</time>
    </trkpt>
    <trkpt lat="48.86621" lon="15.12335">
    <ele>562</ele>
    <time>2016-07-24T08:04:54Z</time>
    </trkpt>
    <trkpt lat="48.86593" lon="15.12333">
    <ele>561</ele>
    <time>2016-07-24T08:05:00Z</time>
    </trkpt>
    <trkpt lat="48.8658" lon="15.12329">
    <ele>561</ele>
    <time>2016-07-24T08:05:03Z</time>
    </trkpt>
    <trkpt lat="48.86568" lon="15.12314">
    <ele>561</ele>
    <time>2016-07-24T08:05:07Z</time>
    </trkpt>
    <trkpt lat="48.86564" lon="15.12297">
    <ele>561</ele>
    <time>2016-07-24T08:05:10Z</time>
    </trkpt>
    <trkpt lat="48.86562" lon="15.12248">
    <ele>560</ele>
    <time>2016-07-24T08:05:17Z</time>
    </trkpt>
    <trkpt lat="48.86559" lon="15.12235">
    <ele>560</ele>
    <time>2016-07-24T08:05:19Z</time>
    </trkpt>
    <trkpt lat="48.86554" lon="15.1223">
    <ele>560</ele>
    <time>2016-07-24T08:05:21Z</time>
    </trkpt>
    <trkpt lat="48.86526" lon="15.12221">
    <ele>559</ele>
    <time>2016-07-24T08:05:28Z</time>
    </trkpt>
    <trkpt lat="48.86521" lon="15.12217">
    <ele>559</ele>
    <time>2016-07-24T08:05:29Z</time>
    </trkpt>
    <trkpt lat="48.86518" lon="15.12214">
    <ele>559</ele>
    <time>2016-07-24T08:05:30Z</time>
    </trkpt>
    <trkpt lat="48.86503" lon="15.12183">
    <ele>559</ele>
    <time>2016-07-24T08:05:36Z</time>
    </trkpt>
    <trkpt lat="48.86504" lon="15.12175">
    <ele>559</ele>
    <time>2016-07-24T08:05:37Z</time>
    </trkpt>
    <trkpt lat="48.86499" lon="15.1209">
    <ele>558</ele>
    <time>2016-07-24T08:05:50Z</time>
    </trkpt>
    <trkpt lat="48.86525" lon="15.12084">
    <ele>557</ele>
    <time>2016-07-24T08:05:56Z</time>
    </trkpt>
    <trkpt lat="48.86533" lon="15.12077">
    <ele>557</ele>
    <time>2016-07-24T08:05:59Z</time>
    </trkpt>
    <trkpt lat="48.86534" lon="15.12078">
    <ele>557</ele>
    <time>2016-07-24T08:05:59Z</time>
    </trkpt>
    <trkpt lat="48.86526" lon="15.12084">
    <ele>557</ele>
    <time>2016-07-24T08:06:01Z</time>
    </trkpt>
    <trkpt lat="48.865" lon="15.1209">
    <ele>557</ele>
    <time>2016-07-24T08:06:07Z</time>
    </trkpt>
    <trkpt lat="48.86505" lon="15.12175">
    <ele>557</ele>
    <time>2016-07-24T08:06:21Z</time>
    </trkpt>
    <trkpt lat="48.86503" lon="15.12204">
    <ele>558</ele>
    <time>2016-07-24T08:06:25Z</time>
    </trkpt>
    <trkpt lat="48.86498" lon="15.12218">
    <ele>558</ele>
    <time>2016-07-24T08:06:28Z</time>
    </trkpt>
    <trkpt lat="48.86491" lon="15.12229">
    <ele>558</ele>
    <time>2016-07-24T08:06:30Z</time>
    </trkpt>
    <trkpt lat="48.86456" lon="15.12265">
    <ele>559</ele>
    <time>2016-07-24T08:06:40Z</time>
    </trkpt>
    <trkpt lat="48.86404" lon="15.12322">
    <ele>560</ele>
    <time>2016-07-24T08:06:55Z</time>
    </trkpt>
    <trkpt lat="48.86347" lon="15.1236">
    <ele>562</ele>
    <time>2016-07-24T08:07:10Z</time>
    </trkpt>
    <trkpt lat="48.86316" lon="15.12392">
    <ele>563</ele>
    <time>2016-07-24T08:07:18Z</time>
    </trkpt>
    <trkpt lat="48.86299" lon="15.1241">
    <ele>564</ele>
    <time>2016-07-24T08:07:23Z</time>
    </trkpt>
    <trkpt lat="48.86299" lon="15.12412">
    <ele>564</ele>
    <time>2016-07-24T08:07:24Z</time>
    </trkpt>
    <trkpt lat="48.86281" lon="15.12444">
    <ele>564</ele>
    <time>2016-07-24T08:07:30Z</time>
    </trkpt>
    <trkpt lat="48.8627" lon="15.12471">
    <ele>565</ele>
    <time>2016-07-24T08:07:35Z</time>
    </trkpt>
    <trkpt lat="48.86266" lon="15.12491">
    <ele>566</ele>
    <time>2016-07-24T08:07:38Z</time>
    </trkpt>
    <trkpt lat="48.86266" lon="15.12511">
    <ele>566</ele>
    <time>2016-07-24T08:07:41Z</time>
    </trkpt>
    <trkpt lat="48.86269" lon="15.12526">
    <ele>567</ele>
    <time>2016-07-24T08:07:44Z</time>
    </trkpt>
    <trkpt lat="48.86277" lon="15.1254">
    <ele>567</ele>
    <time>2016-07-24T08:07:47Z</time>
    </trkpt>
    <trkpt lat="48.86289" lon="15.12553">
    <ele>568</ele>
    <time>2016-07-24T08:07:50Z</time>
    </trkpt>
    <trkpt lat="48.86334" lon="15.12582">
    <ele>571</ele>
    <time>2016-07-24T08:08:02Z</time>
    </trkpt>
    <trkpt lat="48.86371" lon="15.12614">
    <ele>573</ele>
    <time>2016-07-24T08:08:12Z</time>
    </trkpt>
    <trkpt lat="48.86399" lon="15.12648">
    <ele>575</ele>
    <time>2016-07-24T08:08:20Z</time>
    </trkpt>
    <trkpt lat="48.86431" lon="15.12697">
    <ele>577</ele>
    <time>2016-07-24T08:08:31Z</time>
    </trkpt>
    <trkpt lat="48.86445" lon="15.12734">
    <ele>579</ele>
    <time>2016-07-24T08:08:38Z</time>
    </trkpt>
    <trkpt lat="48.86474" lon="15.12846">
    <ele>583</ele>
    <time>2016-07-24T08:08:56Z</time>
    </trkpt>
    <trkpt lat="48.86487" lon="15.12907">
    <ele>585</ele>
    <time>2016-07-24T08:09:06Z</time>
    </trkpt>
    <trkpt lat="48.86495" lon="15.12952">
    <ele>587</ele>
    <time>2016-07-24T08:09:13Z</time>
    </trkpt>
    <trkpt lat="48.865" lon="15.13004">
    <ele>589</ele>
    <time>2016-07-24T08:09:22Z</time>
    </trkpt>
    <trkpt lat="48.86498" lon="15.13066">
    <ele>591</ele>
    <time>2016-07-24T08:09:31Z</time>
    </trkpt>
    <trkpt lat="48.86493" lon="15.13095">
    <ele>592</ele>
    <time>2016-07-24T08:09:36Z</time>
    </trkpt>
    <trkpt lat="48.86479" lon="15.1314">
    <ele>594</ele>
    <time>2016-07-24T08:09:44Z</time>
    </trkpt>
    <trkpt lat="48.86479" lon="15.13141">
    <ele>594</ele>
    <time>2016-07-24T08:09:44Z</time>
    </trkpt>
    <trkpt lat="48.86455" lon="15.13186">
    <ele>596</ele>
    <time>2016-07-24T08:09:53Z</time>
    </trkpt>
    <trkpt lat="48.86428" lon="15.13226">
    <ele>598</ele>
    <time>2016-07-24T08:10:02Z</time>
    </trkpt>
    <trkpt lat="48.86399" lon="15.13255">
    <ele>599</ele>
    <time>2016-07-24T08:10:10Z</time>
    </trkpt>
    <trkpt lat="48.86366" lon="15.13278">
    <ele>601</ele>
    <time>2016-07-24T08:10:18Z</time>
    </trkpt>
    <trkpt lat="48.86347" lon="15.13289">
    <ele>602</ele>
    <time>2016-07-24T08:10:23Z</time>
    </trkpt>
    <trkpt lat="48.8621" lon="15.13355">
    <ele>608</ele>
    <time>2016-07-24T08:10:57Z</time>
    </trkpt>
    <trkpt lat="48.8619" lon="15.13366">
    <ele>609</ele>
    <time>2016-07-24T08:11:02Z</time>
    </trkpt>
    <trkpt lat="48.86151" lon="15.13395">
    <ele>610</ele>
    <time>2016-07-24T08:11:12Z</time>
    </trkpt>
    <trkpt lat="48.86112" lon="15.1344">
    <ele>612</ele>
    <time>2016-07-24T08:11:24Z</time>
    </trkpt>
    <trkpt lat="48.86101" lon="15.13464">
    <ele>613</ele>
    <time>2016-07-24T08:11:28Z</time>
    </trkpt>
    <trkpt lat="48.86106" lon="15.13468">
    <ele>613</ele>
    <time>2016-07-24T08:11:30Z</time>
    </trkpt>
    <trkpt lat="48.86108" lon="15.13475">
    <ele>613</ele>
    <time>2016-07-24T08:11:31Z</time>
    </trkpt>
    <trkpt lat="48.86086" lon="15.13549">
    <ele>614</ele>
    <time>2016-07-24T08:11:43Z</time>
    </trkpt>
    <trkpt lat="48.86072" lon="15.1354">
    <ele>614</ele>
    <time>2016-07-24T08:11:47Z</time>
    </trkpt>
    <trkpt lat="48.86033" lon="15.13672">
    <ele>616</ele>
    <time>2016-07-24T08:12:10Z</time>
    </trkpt>
    <trkpt lat="48.86034" lon="15.13672">
    <ele>616</ele>
    <time>2016-07-24T08:12:10Z</time>
    </trkpt>
    <trkpt lat="48.86056" lon="15.13594">
    <ele>617</ele>
    <time>2016-07-24T08:12:23Z</time>
    </trkpt>
    <trkpt lat="48.86078" lon="15.13619">
    <ele>617</ele>
    <time>2016-07-24T08:12:29Z</time>
    </trkpt>
    <trkpt lat="48.86083" lon="15.13631">
    <ele>617</ele>
    <time>2016-07-24T08:12:32Z</time>
    </trkpt>
    <trkpt lat="48.86105" lon="15.137">
    <ele>617</ele>
    <time>2016-07-24T08:12:44Z</time>
    </trkpt>
    <trkpt lat="48.86115" lon="15.13725">
    <ele>618</ele>
    <time>2016-07-24T08:12:48Z</time>
    </trkpt>
    <trkpt lat="48.8613" lon="15.13749">
    <ele>618</ele>
    <time>2016-07-24T08:12:53Z</time>
    </trkpt>
    <trkpt lat="48.86199" lon="15.13837">
    <ele>617</ele>
    <time>2016-07-24T08:13:14Z</time>
    </trkpt>
    <trkpt lat="48.86208" lon="15.13854">
    <ele>617</ele>
    <time>2016-07-24T08:13:18Z</time>
    </trkpt>
    <trkpt lat="48.86214" lon="15.13886">
    <ele>616</ele>
    <time>2016-07-24T08:13:23Z</time>
    </trkpt>
    <trkpt lat="48.86212" lon="15.13976">
    <ele>616</ele>
    <time>2016-07-24T08:13:37Z</time>
    </trkpt>
    <trkpt lat="48.86214" lon="15.14014">
    <ele>615</ele>
    <time>2016-07-24T08:13:43Z</time>
    </trkpt>
    <trkpt lat="48.8622" lon="15.14053">
    <ele>615</ele>
    <time>2016-07-24T08:13:49Z</time>
    </trkpt>
    <trkpt lat="48.86317" lon="15.14345">
    <ele>609</ele>
    <time>2016-07-24T08:14:40Z</time>
    </trkpt>
    <trkpt lat="48.86348" lon="15.14432">
    <ele>607</ele>
    <time>2016-07-24T08:14:55Z</time>
    </trkpt>
    <trkpt lat="48.8639" lon="15.14523">
    <ele>605</ele>
    <time>2016-07-24T08:15:12Z</time>
    </trkpt>
    <trkpt lat="48.8642" lon="15.14599">
    <ele>604</ele>
    <time>2016-07-24T08:15:26Z</time>
    </trkpt>
    <trkpt lat="48.86446" lon="15.1465">
    <ele>603</ele>
    <time>2016-07-24T08:15:36Z</time>
    </trkpt>
    <trkpt lat="48.86499" lon="15.14724">
    <ele>602</ele>
    <time>2016-07-24T08:15:53Z</time>
    </trkpt>
    <trkpt lat="48.86514" lon="15.14759">
    <ele>601</ele>
    <time>2016-07-24T08:16:00Z</time>
    </trkpt>
    <trkpt lat="48.86518" lon="15.14776">
    <ele>601</ele>
    <time>2016-07-24T08:16:03Z</time>
    </trkpt>
    <trkpt lat="48.86515" lon="15.14805">
    <ele>601</ele>
    <time>2016-07-24T08:16:07Z</time>
    </trkpt>
    <trkpt lat="48.86503" lon="15.14848">
    <ele>601</ele>
    <time>2016-07-24T08:16:14Z</time>
    </trkpt>
    <trkpt lat="48.86467" lon="15.14955">
    <ele>602</ele>
    <time>2016-07-24T08:16:33Z</time>
    </trkpt>
    <trkpt lat="48.86485" lon="15.14978">
    <ele>603</ele>
    <time>2016-07-24T08:16:39Z</time>
    </trkpt>
    <trkpt lat="48.86525" lon="15.15024">
    <ele>603</ele>
    <time>2016-07-24T08:16:50Z</time>
    </trkpt>
    <trkpt lat="48.86542" lon="15.15063">
    <ele>604</ele>
    <time>2016-07-24T08:16:58Z</time>
    </trkpt>
    <trkpt lat="48.86552" lon="15.15101">
    <ele>605</ele>
    <time>2016-07-24T08:17:04Z</time>
    </trkpt>
    <trkpt lat="48.86557" lon="15.15139">
    <ele>605</ele>
    <time>2016-07-24T08:17:10Z</time>
    </trkpt>
    <trkpt lat="48.86557" lon="15.15178">
    <ele>606</ele>
    <time>2016-07-24T08:17:16Z</time>
    </trkpt>
    <trkpt lat="48.86548" lon="15.15226">
    <ele>607</ele>
    <time>2016-07-24T08:17:24Z</time>
    </trkpt>
    <trkpt lat="48.86514" lon="15.1537">
    <ele>610</ele>
    <time>2016-07-24T08:17:48Z</time>
    </trkpt>
    <trkpt lat="48.86513" lon="15.15458">
    <ele>611</ele>
    <time>2016-07-24T08:18:01Z</time>
    </trkpt>
    <trkpt lat="48.86516" lon="15.15519">
    <ele>613</ele>
    <time>2016-07-24T08:18:11Z</time>
    </trkpt>
    <trkpt lat="48.86555" lon="15.15655">
    <ele>615</ele>
    <time>2016-07-24T08:18:34Z</time>
    </trkpt>
    <trkpt lat="48.86575" lon="15.15744">
    <ele>617</ele>
    <time>2016-07-24T08:18:48Z</time>
    </trkpt>
    <trkpt lat="48.86595" lon="15.15871">
    <ele>619</ele>
    <time>2016-07-24T08:19:09Z</time>
    </trkpt>
    <trkpt lat="48.86597" lon="15.15914">
    <ele>619</ele>
    <time>2016-07-24T08:19:15Z</time>
    </trkpt>
    <trkpt lat="48.86583" lon="15.16017">
    <ele>621</ele>
    <time>2016-07-24T08:19:32Z</time>
    </trkpt>
    <trkpt lat="48.86576" lon="15.1616">
    <ele>622</ele>
    <time>2016-07-24T08:19:54Z</time>
    </trkpt>
    <trkpt lat="48.86555" lon="15.1627">
    <ele>623</ele>
    <time>2016-07-24T08:20:12Z</time>
    </trkpt>
    <trkpt lat="48.86516" lon="15.16385">
    <ele>624</ele>
    <time>2016-07-24T08:20:32Z</time>
    </trkpt>
    <trkpt lat="48.86509" lon="15.16443">
    <ele>624</ele>
    <time>2016-07-24T08:20:41Z</time>
    </trkpt>
    <trkpt lat="48.86502" lon="15.16555">
    <ele>623</ele>
    <time>2016-07-24T08:20:58Z</time>
    </trkpt>
    <trkpt lat="48.86482" lon="15.16756">
    <ele>623</ele>
    <time>2016-07-24T08:21:30Z</time>
    </trkpt>
    <trkpt lat="48.86465" lon="15.16865">
    <ele>622</ele>
    <time>2016-07-24T08:21:47Z</time>
    </trkpt>
    <trkpt lat="48.86461" lon="15.16979">
    <ele>621</ele>
    <time>2016-07-24T08:22:05Z</time>
    </trkpt>
    <trkpt lat="48.86486" lon="15.17158">
    <ele>619</ele>
    <time>2016-07-24T08:22:34Z</time>
    </trkpt>
    <trkpt lat="48.86495" lon="15.1734">
    <ele>616</ele>
    <time>2016-07-24T08:23:02Z</time>
    </trkpt>
    <trkpt lat="48.86466" lon="15.17542">
    <ele>613</ele>
    <time>2016-07-24T08:23:34Z</time>
    </trkpt>
    <trkpt lat="48.86467" lon="15.17543">
    <ele>612</ele>
    <time>2016-07-24T08:23:34Z</time>
    </trkpt>
    <trkpt lat="48.86416" lon="15.17897">
    <ele>607</ele>
    <time>2016-07-24T08:24:31Z</time>
    </trkpt>
    <trkpt lat="48.86414" lon="15.17934">
    <ele>606</ele>
    <time>2016-07-24T08:24:36Z</time>
    </trkpt>
    <trkpt lat="48.86421" lon="15.17963">
    <ele>606</ele>
    <time>2016-07-24T08:24:41Z</time>
    </trkpt>
    <trkpt lat="48.86436" lon="15.17987">
    <ele>605</ele>
    <time>2016-07-24T08:24:46Z</time>
    </trkpt>
    <trkpt lat="48.864734" lon="15.180352">
    <ele>604</ele>
    <time>2016-07-24T08:24:58Z</time>
    </trkpt>
    <trkpt lat="48.864813" lon="15.179424">
    <ele>604</ele>
    <time>2016-07-24T08:25:12Z</time>
    </trkpt>
    <trkpt lat="48.865304" lon="15.178295">
    <ele>603</ele>
    <time>2016-07-24T08:25:33Z</time>
    </trkpt>
    <trkpt lat="48.866153" lon="15.177229">
    <ele>603</ele>
    <time>2016-07-24T08:25:59Z</time>
    </trkpt>
    <trkpt lat="48.866525" lon="15.176485">
    <ele>603</ele>
    <time>2016-07-24T08:26:14Z</time>
    </trkpt>
    <trkpt lat="48.866706" lon="15.175967">
    <ele>603</ele>
    <time>2016-07-24T08:26:23Z</time>
    </trkpt>
    <trkpt lat="48.86688" lon="15.17569">
    <ele>603</ele>
    <time>2016-07-24T08:26:29Z</time>
    </trkpt>
    <trkpt lat="48.867872" lon="15.175329">
    <ele>605</ele>
    <time>2016-07-24T08:26:53Z</time>
    </trkpt>
    <trkpt lat="48.868306" lon="15.175261">
    <ele>606</ele>
    <time>2016-07-24T08:27:03Z</time>
    </trkpt>
    <trkpt lat="48.868728" lon="15.175034">
    <ele>607</ele>
    <time>2016-07-24T08:27:14Z</time>
    </trkpt>
    <trkpt lat="48.869214" lon="15.174921">
    <ele>608</ele>
    <time>2016-07-24T08:27:25Z</time>
    </trkpt>
    <trkpt lat="48.869837" lon="15.17476">
    <ele>610</ele>
    <time>2016-07-24T08:27:40Z</time>
    </trkpt>
    <trkpt lat="48.870543" lon="15.174564">
    <ele>611</ele>
    <time>2016-07-24T08:27:57Z</time>
    </trkpt>
    <trkpt lat="48.871406" lon="15.174631">
    <ele>614</ele>
    <time>2016-07-24T08:28:18Z</time>
    </trkpt>
    <trkpt lat="48.871638" lon="15.174549">
    <ele>614</ele>
    <time>2016-07-24T08:28:23Z</time>
    </trkpt>
    <trkpt lat="48.871871" lon="15.174383">
    <ele>615</ele>
    <time>2016-07-24T08:28:29Z</time>
    </trkpt>
    <trkpt lat="48.872874" lon="15.173967">
    <ele>618</ele>
    <time>2016-07-24T08:28:54Z</time>
    </trkpt>
    <trkpt lat="48.873681" lon="15.173469">
    <ele>620</ele>
    <time>2016-07-24T08:29:14Z</time>
    </trkpt>
    <trkpt lat="48.874192" lon="15.17344">
    <ele>621</ele>
    <time>2016-07-24T08:29:26Z</time>
    </trkpt>
    <trkpt lat="48.874557" lon="15.173187">
    <ele>622</ele>
    <time>2016-07-24T08:29:36Z</time>
    </trkpt>
    <trkpt lat="48.875038" lon="15.172976">
    <ele>623</ele>
    <time>2016-07-24T08:29:48Z</time>
    </trkpt>
    <trkpt lat="48.875274" lon="15.172601">
    <ele>623</ele>
    <time>2016-07-24T08:29:56Z</time>
    </trkpt>
    <trkpt lat="48.8754" lon="15.172481">
    <ele>623</ele>
    <time>2016-07-24T08:29:59Z</time>
    </trkpt>
    <trkpt lat="48.875568" lon="15.172076">
    <ele>623</ele>
    <time>2016-07-24T08:30:06Z</time>
    </trkpt>
    <trkpt lat="48.87585" lon="15.171021">
    <ele>624</ele>
    <time>2016-07-24T08:30:24Z</time>
    </trkpt>
    <trkpt lat="48.875948" lon="15.170791">
    <ele>624</ele>
    <time>2016-07-24T08:30:28Z</time>
    </trkpt>
    <trkpt lat="48.876371" lon="15.170285">
    <ele>623</ele>
    <time>2016-07-24T08:30:41Z</time>
    </trkpt>
    <trkpt lat="48.876953" lon="15.169889">
    <ele>623</ele>
    <time>2016-07-24T08:30:56Z</time>
    </trkpt>
    <trkpt lat="48.877272" lon="15.169041">
    <ele>622</ele>
    <time>2016-07-24T08:31:11Z</time>
    </trkpt>
    <trkpt lat="48.877535" lon="15.168356">
    <ele>622</ele>
    <time>2016-07-24T08:31:24Z</time>
    </trkpt>
    <trkpt lat="48.877759" lon="15.167366">
    <ele>621</ele>
    <time>2016-07-24T08:31:40Z</time>
    </trkpt>
    <trkpt lat="48.877719" lon="15.16706">
    <ele>621</ele>
    <time>2016-07-24T08:31:45Z</time>
    </trkpt>
    <trkpt lat="48.877822" lon="15.166563">
    <ele>621</ele>
    <time>2016-07-24T08:31:53Z</time>
    </trkpt>
    <trkpt lat="48.877726" lon="15.166246">
    <ele>621</ele>
    <time>2016-07-24T08:31:58Z</time>
    </trkpt>
    <trkpt lat="48.878083" lon="15.165997">
    <ele>621</ele>
    <time>2016-07-24T08:32:07Z</time>
    </trkpt>
    <trkpt lat="48.878162" lon="15.165322">
    <ele>621</ele>
    <time>2016-07-24T08:32:18Z</time>
    </trkpt>
    <trkpt lat="48.878512" lon="15.164345">
    <ele>621</ele>
    <time>2016-07-24T08:32:35Z</time>
    </trkpt>
    <trkpt lat="48.878765" lon="15.163832">
    <ele>621</ele>
    <time>2016-07-24T08:32:45Z</time>
    </trkpt>
    <trkpt lat="48.879632" lon="15.162895">
    <ele>620</ele>
    <time>2016-07-24T08:33:10Z</time>
    </trkpt>
    <trkpt lat="48.880052" lon="15.162399">
    <ele>620</ele>
    <time>2016-07-24T08:33:23Z</time>
    </trkpt>
    <trkpt lat="48.880259" lon="15.162091">
    <ele>620</ele>
    <time>2016-07-24T08:33:30Z</time>
    </trkpt>
    <trkpt lat="48.880324" lon="15.161977">
    <ele>620</ele>
    <time>2016-07-24T08:33:32Z</time>
    </trkpt>
    <trkpt lat="48.880776" lon="15.16174">
    <ele>618</ele>
    <time>2016-07-24T08:33:43Z</time>
    </trkpt>
    <trkpt lat="48.881149" lon="15.161531">
    <ele>617</ele>
    <time>2016-07-24T08:33:53Z</time>
    </trkpt>
    <trkpt lat="48.881401" lon="15.161476">
    <ele>616</ele>
    <time>2016-07-24T08:33:59Z</time>
    </trkpt>
    <trkpt lat="48.881498" lon="15.161414">
    <ele>615</ele>
    <time>2016-07-24T08:34:01Z</time>
    </trkpt>
    <trkpt lat="48.881743" lon="15.161013">
    <ele>614</ele>
    <time>2016-07-24T08:34:10Z</time>
    </trkpt>
    <trkpt lat="48.882008" lon="15.160652">
    <ele>614</ele>
    <time>2016-07-24T08:34:18Z</time>
    </trkpt>
    <trkpt lat="48.882166" lon="15.160563">
    <ele>613</ele>
    <time>2016-07-24T08:34:22Z</time>
    </trkpt>
    <trkpt lat="48.882601" lon="15.160331">
    <ele>612</ele>
    <time>2016-07-24T08:34:33Z</time>
    </trkpt>
    <trkpt lat="48.883182" lon="15.160194">
    <ele>611</ele>
    <time>2016-07-24T08:34:47Z</time>
    </trkpt>
    <trkpt lat="48.884105" lon="15.160127">
    <ele>609</ele>
    <time>2016-07-24T08:35:09Z</time>
    </trkpt>
    <trkpt lat="48.884307" lon="15.159924">
    <ele>609</ele>
    <time>2016-07-24T08:35:14Z</time>
    </trkpt>
    <trkpt lat="48.884669" lon="15.159666">
    <ele>609</ele>
    <time>2016-07-24T08:35:24Z</time>
    </trkpt>
    <trkpt lat="48.884773" lon="15.159259">
    <ele>608</ele>
    <time>2016-07-24T08:35:30Z</time>
    </trkpt>
    <trkpt lat="48.885019" lon="15.158802">
    <ele>608</ele>
    <time>2016-07-24T08:35:40Z</time>
    </trkpt>
    <trkpt lat="48.885041" lon="15.156501">
    <ele>606</ele>
    <time>2016-07-24T08:36:15Z</time>
    </trkpt>
    <trkpt lat="48.885194" lon="15.155465">
    <ele>605</ele>
    <time>2016-07-24T08:36:32Z</time>
    </trkpt>
    <trkpt lat="48.886003" lon="15.154912">
    <ele>605</ele>
    <time>2016-07-24T08:36:53Z</time>
    </trkpt>
    <trkpt lat="48.886801" lon="15.155449">
    <ele>604</ele>
    <time>2016-07-24T08:37:13Z</time>
    </trkpt>
    <trkpt lat="48.887532" lon="15.156052">
    <ele>603</ele>
    <time>2016-07-24T08:37:33Z</time>
    </trkpt>
    <trkpt lat="48.88885" lon="15.15648">
    <ele>601</ele>
    <time>2016-07-24T08:38:05Z</time>
    </trkpt>
    <trkpt lat="48.88953" lon="15.15822">
    <ele>600</ele>
    <time>2016-07-24T08:38:36Z</time>
    </trkpt>
    <trkpt lat="48.890033" lon="15.15923">
    <ele>599</ele>
    <time>2016-07-24T08:38:56Z</time>
    </trkpt>
    <trkpt lat="48.89019" lon="15.15978">
    <ele>598</ele>
    <time>2016-07-24T08:39:05Z</time>
    </trkpt>
    <trkpt lat="48.89099" lon="15.15894">
    <ele>597</ele>
    <time>2016-07-24T08:39:28Z</time>
    </trkpt>
    <trkpt lat="48.89117" lon="15.15872">
    <ele>597</ele>
    <time>2016-07-24T08:39:33Z</time>
    </trkpt>
    <trkpt lat="48.8913" lon="15.15853">
    <ele>597</ele>
    <time>2016-07-24T08:39:38Z</time>
    </trkpt>
    <trkpt lat="48.89153" lon="15.15804">
    <ele>596</ele>
    <time>2016-07-24T08:39:47Z</time>
    </trkpt>
    <trkpt lat="48.89163" lon="15.15783">
    <ele>595</ele>
    <time>2016-07-24T08:39:51Z</time>
    </trkpt>
    <trkpt lat="48.89171" lon="15.15777">
    <ele>595</ele>
    <time>2016-07-24T08:39:53Z</time>
    </trkpt>
    <trkpt lat="48.89187" lon="15.15772">
    <ele>594</ele>
    <time>2016-07-24T08:39:57Z</time>
    </trkpt>
    <trkpt lat="48.89219" lon="15.15767">
    <ele>593</ele>
    <time>2016-07-24T08:40:04Z</time>
    </trkpt>
    <trkpt lat="48.89265" lon="15.15743">
    <ele>591</ele>
    <time>2016-07-24T08:40:16Z</time>
    </trkpt>
    <trkpt lat="48.89289" lon="15.15736">
    <ele>590</ele>
    <time>2016-07-24T08:40:22Z</time>
    </trkpt>
    <trkpt lat="48.89301" lon="15.15725">
    <ele>590</ele>
    <time>2016-07-24T08:40:25Z</time>
    </trkpt>
    <trkpt lat="48.89307" lon="15.15714">
    <ele>589</ele>
    <time>2016-07-24T08:40:27Z</time>
    </trkpt>
    <trkpt lat="48.89307" lon="15.15702">
    <ele>589</ele>
    <time>2016-07-24T08:40:29Z</time>
    </trkpt>
    <trkpt lat="48.89305" lon="15.1569">
    <ele>589</ele>
    <time>2016-07-24T08:40:31Z</time>
    </trkpt>
    <trkpt lat="48.893" lon="15.15679">
    <ele>588</ele>
    <time>2016-07-24T08:40:33Z</time>
    </trkpt>
    <trkpt lat="48.89299" lon="15.15669">
    <ele>588</ele>
    <time>2016-07-24T08:40:35Z</time>
    </trkpt>
    <trkpt lat="48.89304" lon="15.15654">
    <ele>588</ele>
    <time>2016-07-24T08:40:37Z</time>
    </trkpt>
    <trkpt lat="48.89337" lon="15.15588">
    <ele>586</ele>
    <time>2016-07-24T08:40:50Z</time>
    </trkpt>
    <trkpt lat="48.89357" lon="15.15552">
    <ele>585</ele>
    <time>2016-07-24T08:40:57Z</time>
    </trkpt>
    <trkpt lat="48.89368" lon="15.15522">
    <ele>585</ele>
    <time>2016-07-24T08:41:03Z</time>
    </trkpt>
    <trkpt lat="48.89379" lon="15.15484">
    <ele>584</ele>
    <time>2016-07-24T08:41:09Z</time>
    </trkpt>
    <trkpt lat="48.89382" lon="15.1546">
    <ele>584</ele>
    <time>2016-07-24T08:41:13Z</time>
    </trkpt>
    <trkpt lat="48.89381" lon="15.15339">
    <ele>583</ele>
    <time>2016-07-24T08:41:32Z</time>
    </trkpt>
    <trkpt lat="48.89385" lon="15.15226">
    <ele>582</ele>
    <time>2016-07-24T08:41:49Z</time>
    </trkpt>
    <trkpt lat="48.89392" lon="15.15206">
    <ele>582</ele>
    <time>2016-07-24T08:41:53Z</time>
    </trkpt>
    <trkpt lat="48.89537" lon="15.15179">
    <ele>581</ele>
    <time>2016-07-24T08:42:27Z</time>
    </trkpt>
    <trkpt lat="48.89674" lon="15.15173">
    <ele>580</ele>
    <time>2016-07-24T08:42:59Z</time>
    </trkpt>
    <trkpt lat="48.89776" lon="15.15121">
    <ele>579</ele>
    <time>2016-07-24T08:43:25Z</time>
    </trkpt>
    <trkpt lat="48.89825" lon="15.15132">
    <ele>579</ele>
    <time>2016-07-24T08:43:37Z</time>
    </trkpt>
    <trkpt lat="48.89877" lon="15.15121">
    <ele>578</ele>
    <time>2016-07-24T08:43:49Z</time>
    </trkpt>
    <trkpt lat="48.89912" lon="15.15116">
    <ele>578</ele>
    <time>2016-07-24T08:43:57Z</time>
    </trkpt>
    <trkpt lat="48.89941" lon="15.15117">
    <ele>578</ele>
    <time>2016-07-24T08:44:04Z</time>
    </trkpt>
    <trkpt lat="48.89941" lon="15.15117">
    <ele>578</ele>
    <time>2016-07-24T08:44:04Z</time>
    </trkpt>
    <trkpt lat="48.90026" lon="15.15119">
    <ele>577</ele>
    <time>2016-07-24T08:44:24Z</time>
    </trkpt>
    <trkpt lat="48.90076" lon="15.15131">
    <ele>577</ele>
    <time>2016-07-24T08:44:36Z</time>
    </trkpt>
    <trkpt lat="48.90132" lon="15.15196">
    <ele>576</ele>
    <time>2016-07-24T08:44:53Z</time>
    </trkpt>
    <trkpt lat="48.90197" lon="15.15308">
    <ele>575</ele>
    <time>2016-07-24T08:45:16Z</time>
    </trkpt>
    <trkpt lat="48.90222" lon="15.1534">
    <ele>575</ele>
    <time>2016-07-24T08:45:23Z</time>
    </trkpt>
    <trkpt lat="48.90301" lon="15.15237">
    <ele>574</ele>
    <time>2016-07-24T08:45:48Z</time>
    </trkpt>
    <trkpt lat="48.90366" lon="15.15177">
    <ele>574</ele>
    <time>2016-07-24T08:46:06Z</time>
    </trkpt>
    <trkpt lat="48.90439" lon="15.1514">
    <ele>573</ele>
    <time>2016-07-24T08:46:24Z</time>
    </trkpt>
    <trkpt lat="48.90491" lon="15.15129">
    <ele>573</ele>
    <time>2016-07-24T08:46:36Z</time>
    </trkpt>
    <trkpt lat="48.90555" lon="15.15148">
    <ele>573</ele>
    <time>2016-07-24T08:46:52Z</time>
    </trkpt>
    <trkpt lat="48.90604" lon="15.15168">
    <ele>573</ele>
    <time>2016-07-24T08:47:04Z</time>
    </trkpt>
    <trkpt lat="48.9061" lon="15.15168">
    <ele>573</ele>
    <time>2016-07-24T08:47:05Z</time>
    </trkpt>
    <trkpt lat="48.90617" lon="15.15164">
    <ele>573</ele>
    <time>2016-07-24T08:47:07Z</time>
    </trkpt>
    <trkpt lat="48.90642" lon="15.15134">
    <ele>573</ele>
    <time>2016-07-24T08:47:14Z</time>
    </trkpt>
    <trkpt lat="48.90648" lon="15.15132">
    <ele>573</ele>
    <time>2016-07-24T08:47:16Z</time>
    </trkpt>
    <trkpt lat="48.90654" lon="15.1506">
    <ele>574</ele>
    <time>2016-07-24T08:47:27Z</time>
    </trkpt>
    <trkpt lat="48.90661" lon="15.15034">
    <ele>574</ele>
    <time>2016-07-24T08:47:31Z</time>
    </trkpt>
    <trkpt lat="48.90676" lon="15.15026">
    <ele>574</ele>
    <time>2016-07-24T08:47:35Z</time>
    </trkpt>
    <trkpt lat="48.90715" lon="15.15019">
    <ele>575</ele>
    <time>2016-07-24T08:47:44Z</time>
    </trkpt>
    <trkpt lat="48.90768" lon="15.14949">
    <ele>576</ele>
    <time>2016-07-24T08:48:01Z</time>
    </trkpt>
    <trkpt lat="48.90778" lon="15.1496">
    <ele>576</ele>
    <time>2016-07-24T08:48:04Z</time>
    </trkpt>
    <trkpt lat="48.90793" lon="15.1497">
    <ele>577</ele>
    <time>2016-07-24T08:48:08Z</time>
    </trkpt>
    <trkpt lat="48.90793" lon="15.14969">
    <ele>577</ele>
    <time>2016-07-24T08:48:08Z</time>
    </trkpt>
    <trkpt lat="48.90813" lon="15.14979">
    <ele>577</ele>
    <time>2016-07-24T08:48:13Z</time>
    </trkpt>
    <trkpt lat="48.90816" lon="15.14978">
    <ele>577</ele>
    <time>2016-07-24T08:48:14Z</time>
    </trkpt>
    <trkpt lat="48.90823" lon="15.1497">
    <ele>577</ele>
    <time>2016-07-24T08:48:16Z</time>
    </trkpt>
    <trkpt lat="48.90824" lon="15.14961">
    <ele>577</ele>
    <time>2016-07-24T08:48:17Z</time>
    </trkpt>
    <trkpt lat="48.90827" lon="15.14848">
    <ele>577</ele>
    <time>2016-07-24T08:48:35Z</time>
    </trkpt>
    <trkpt lat="48.90833" lon="15.14703">
    <ele>577</ele>
    <time>2016-07-24T08:48:57Z</time>
    </trkpt>
    <trkpt lat="48.90923" lon="15.14686">
    <ele>578</ele>
    <time>2016-07-24T08:49:18Z</time>
    </trkpt>
    <trkpt lat="48.90963" lon="15.14683">
    <ele>578</ele>
    <time>2016-07-24T08:49:28Z</time>
    </trkpt>
    <trkpt lat="48.91039" lon="15.147">
    <ele>578</ele>
    <time>2016-07-24T08:49:46Z</time>
    </trkpt>
    <trkpt lat="48.91095" lon="15.14709">
    <ele>578</ele>
    <time>2016-07-24T08:49:59Z</time>
    </trkpt>
    <trkpt lat="48.91207" lon="15.14714">
    <ele>578</ele>
    <time>2016-07-24T08:50:26Z</time>
    </trkpt>
    <trkpt lat="48.9122" lon="15.14696">
    <ele>578</ele>
    <time>2016-07-24T08:50:30Z</time>
    </trkpt>
    <trkpt lat="48.91253" lon="15.14642">
    <ele>578</ele>
    <time>2016-07-24T08:50:41Z</time>
    </trkpt>
    <trkpt lat="48.91273" lon="15.1462">
    <ele>578</ele>
    <time>2016-07-24T08:50:47Z</time>
    </trkpt>
    <trkpt lat="48.91327" lon="15.14593">
    <ele>578</ele>
    <time>2016-07-24T08:51:00Z</time>
    </trkpt>
    <trkpt lat="48.91357" lon="15.14589">
    <ele>578</ele>
    <time>2016-07-24T08:51:08Z</time>
    </trkpt>
    <trkpt lat="48.91386" lon="15.14596">
    <ele>579</ele>
    <time>2016-07-24T08:51:14Z</time>
    </trkpt>
    <trkpt lat="48.914" lon="15.14605">
    <ele>579</ele>
    <time>2016-07-24T08:51:18Z</time>
    </trkpt>
    <trkpt lat="48.91476" lon="15.14626">
    <ele>580</ele>
    <time>2016-07-24T08:51:36Z</time>
    </trkpt>
    <trkpt lat="48.91617" lon="15.14605">
    <ele>582</ele>
    <time>2016-07-24T08:52:10Z</time>
    </trkpt>
    <trkpt lat="48.91667" lon="15.14622">
    <ele>582</ele>
    <time>2016-07-24T08:52:22Z</time>
    </trkpt>
    <trkpt lat="48.91666" lon="15.14623">
    <ele>582</ele>
    <time>2016-07-24T08:52:22Z</time>
    </trkpt>
    <trkpt lat="48.91707" lon="15.14637">
    <ele>583</ele>
    <time>2016-07-24T08:52:32Z</time>
    </trkpt>
    <trkpt lat="48.91785" lon="15.14637">
    <ele>585</ele>
    <time>2016-07-24T08:52:50Z</time>
    </trkpt>
    <trkpt lat="48.91858" lon="15.14632">
    <ele>587</ele>
    <time>2016-07-24T08:53:07Z</time>
    </trkpt>
    <trkpt lat="48.91874" lon="15.14593">
    <ele>588</ele>
    <time>2016-07-24T08:53:15Z</time>
    </trkpt>
    <trkpt lat="48.91916" lon="15.14559">
    <ele>589</ele>
    <time>2016-07-24T08:53:26Z</time>
    </trkpt>
    <trkpt lat="48.91955" lon="15.1452">
    <ele>591</ele>
    <time>2016-07-24T08:53:37Z</time>
    </trkpt>
    <trkpt lat="48.91991" lon="15.14472">
    <ele>593</ele>
    <time>2016-07-24T08:53:48Z</time>
    </trkpt>
    <trkpt lat="48.92027" lon="15.14419">
    <ele>595</ele>
    <time>2016-07-24T08:54:00Z</time>
    </trkpt>
    <trkpt lat="48.92049" lon="15.14368">
    <ele>596</ele>
    <time>2016-07-24T08:54:09Z</time>
    </trkpt>
    <trkpt lat="48.92068" lon="15.14335">
    <ele>597</ele>
    <time>2016-07-24T08:54:16Z</time>
    </trkpt>
    <trkpt lat="48.92155" lon="15.14244">
    <ele>601</ele>
    <time>2016-07-24T08:54:41Z</time>
    </trkpt>
    <trkpt lat="48.92198" lon="15.14213">
    <ele>602</ele>
    <time>2016-07-24T08:54:52Z</time>
    </trkpt>
    <trkpt lat="48.92277" lon="15.14037">
    <ele>607</ele>
    <time>2016-07-24T08:55:25Z</time>
    </trkpt>
    <trkpt lat="48.9235" lon="15.13932">
    <ele>609</ele>
    <time>2016-07-24T08:55:49Z</time>
    </trkpt>
    <trkpt lat="48.92396" lon="15.13859">
    <ele>610</ele>
    <time>2016-07-24T08:56:05Z</time>
    </trkpt>
    <trkpt lat="48.92413" lon="15.13834">
    <ele>611</ele>
    <time>2016-07-24T08:56:10Z</time>
    </trkpt>
    <trkpt lat="48.92511" lon="15.1373">
    <ele>612</ele>
    <time>2016-07-24T08:56:38Z</time>
    </trkpt>
    <trkpt lat="48.92556" lon="15.13684">
    <ele>613</ele>
    <time>2016-07-24T08:56:51Z</time>
    </trkpt>
    <trkpt lat="48.92585" lon="15.13666">
    <ele>613</ele>
    <time>2016-07-24T08:56:58Z</time>
    </trkpt>
    <trkpt lat="48.92597" lon="15.13655">
    <ele>612</ele>
    <time>2016-07-24T08:57:02Z</time>
    </trkpt>
    <trkpt lat="48.92608" lon="15.13644">
    <ele>612</ele>
    <time>2016-07-24T08:57:05Z</time>
    </trkpt>
    <trkpt lat="48.92619" lon="15.13627">
    <ele>611</ele>
    <time>2016-07-24T08:57:09Z</time>
    </trkpt>
    <trkpt lat="48.92724" lon="15.13436">
    <ele>605</ele>
    <time>2016-07-24T08:57:47Z</time>
    </trkpt>
    <trkpt lat="48.92863" lon="15.13218">
    <ele>597</ele>
    <time>2016-07-24T08:58:34Z</time>
    </trkpt>
    <trkpt lat="48.92879" lon="15.13176">
    <ele>596</ele>
    <time>2016-07-24T08:58:42Z</time>
    </trkpt>
    <trkpt lat="48.92966" lon="15.12957">
    <ele>589</ele>
    <time>2016-07-24T08:59:21Z</time>
    </trkpt>
    <trkpt lat="48.92977" lon="15.12915">
    <ele>588</ele>
    <time>2016-07-24T08:59:28Z</time>
    </trkpt>
    <trkpt lat="48.93004" lon="15.12782">
    <ele>584</ele>
    <time>2016-07-24T08:59:50Z</time>
    </trkpt>
    <trkpt lat="48.930184" lon="15.126826">
    <ele>582</ele>
    <time>2016-07-24T09:00:06Z</time>
    </trkpt>
    <trkpt lat="48.930284" lon="15.125146">
    <ele>579</ele>
    <time>2016-07-24T09:00:32Z</time>
    </trkpt>
    <trkpt lat="48.93031" lon="15.12485">
    <ele>578</ele>
    <time>2016-07-24T09:00:37Z</time>
    </trkpt>
    <trkpt lat="48.93036" lon="15.12501">
    <ele>578</ele>
    <time>2016-07-24T09:00:39Z</time>
    </trkpt>
    <trkpt lat="48.93067" lon="15.12556">
    <ele>577</ele>
    <time>2016-07-24T09:00:51Z</time>
    </trkpt>
    <trkpt lat="48.93096" lon="15.12619">
    <ele>576</ele>
    <time>2016-07-24T09:01:03Z</time>
    </trkpt>
    <trkpt lat="48.93127" lon="15.12698">
    <ele>576</ele>
    <time>2016-07-24T09:01:17Z</time>
    </trkpt>
    <trkpt lat="48.93163" lon="15.12807">
    <ele>576</ele>
    <time>2016-07-24T09:01:36Z</time>
    </trkpt>
    <trkpt lat="48.93176" lon="15.12834">
    <ele>575</ele>
    <time>2016-07-24T09:01:41Z</time>
    </trkpt>
    <trkpt lat="48.93193" lon="15.12852">
    <ele>575</ele>
    <time>2016-07-24T09:01:46Z</time>
    </trkpt>
    <trkpt lat="48.9332" lon="15.12968">
    <ele>575</ele>
    <time>2016-07-24T09:02:21Z</time>
    </trkpt>
    <trkpt lat="48.93346" lon="15.12984">
    <ele>575</ele>
    <time>2016-07-24T09:02:27Z</time>
    </trkpt>
    <trkpt lat="48.93384" lon="15.13">
    <ele>575</ele>
    <time>2016-07-24T09:02:37Z</time>
    </trkpt>
    <trkpt lat="48.93417" lon="15.1301">
    <ele>575</ele>
    <time>2016-07-24T09:02:45Z</time>
    </trkpt>
    <trkpt lat="48.93466" lon="15.13019">
    <ele>575</ele>
    <time>2016-07-24T09:02:56Z</time>
    </trkpt>
    <trkpt lat="48.93487" lon="15.13025">
    <ele>575</ele>
    <time>2016-07-24T09:03:01Z</time>
    </trkpt>
    <trkpt lat="48.93505" lon="15.13035">
    <ele>575</ele>
    <time>2016-07-24T09:03:06Z</time>
    </trkpt>
    <trkpt lat="48.93523" lon="15.1305">
    <ele>575</ele>
    <time>2016-07-24T09:03:11Z</time>
    </trkpt>
    <trkpt lat="48.9354" lon="15.1307">
    <ele>575</ele>
    <time>2016-07-24T09:03:16Z</time>
    </trkpt>
    <trkpt lat="48.93559" lon="15.131">
    <ele>575</ele>
    <time>2016-07-24T09:03:22Z</time>
    </trkpt>
    <trkpt lat="48.93602" lon="15.13178">
    <ele>575</ele>
    <time>2016-07-24T09:03:38Z</time>
    </trkpt>
    <trkpt lat="48.93617" lon="15.13213">
    <ele>575</ele>
    <time>2016-07-24T09:03:44Z</time>
    </trkpt>
    <trkpt lat="48.93626" lon="15.13248">
    <ele>576</ele>
    <time>2016-07-24T09:03:50Z</time>
    </trkpt>
    <trkpt lat="48.9364" lon="15.13334">
    <ele>576</ele>
    <time>2016-07-24T09:04:04Z</time>
    </trkpt>
    <trkpt lat="48.93647" lon="15.13363">
    <ele>576</ele>
    <time>2016-07-24T09:04:09Z</time>
    </trkpt>
    <trkpt lat="48.93658" lon="15.13389">
    <ele>576</ele>
    <time>2016-07-24T09:04:13Z</time>
    </trkpt>
    <trkpt lat="48.93671" lon="15.13409">
    <ele>576</ele>
    <time>2016-07-24T09:04:18Z</time>
    </trkpt>
    <trkpt lat="48.93686" lon="15.13424">
    <ele>576</ele>
    <time>2016-07-24T09:04:22Z</time>
    </trkpt>
    <trkpt lat="48.93729" lon="15.13458">
    <ele>576</ele>
    <time>2016-07-24T09:04:33Z</time>
    </trkpt>
    <trkpt lat="48.93745" lon="15.13473">
    <ele>576</ele>
    <time>2016-07-24T09:04:38Z</time>
    </trkpt>
    <trkpt lat="48.93791" lon="15.1335">
    <ele>576</ele>
    <time>2016-07-24T09:05:00Z</time>
    </trkpt>
    <trkpt lat="48.93807" lon="15.13301">
    <ele>576</ele>
    <time>2016-07-24T09:05:08Z</time>
    </trkpt>
    <trkpt lat="48.93814" lon="15.13294">
    <ele>576</ele>
    <time>2016-07-24T09:05:10Z</time>
    </trkpt>
    <trkpt lat="48.93836" lon="15.13288">
    <ele>576</ele>
    <time>2016-07-24T09:05:16Z</time>
    </trkpt>
    <trkpt lat="48.93844" lon="15.13277">
    <ele>576</ele>
    <time>2016-07-24T09:05:18Z</time>
    </trkpt>
    <trkpt lat="48.93845" lon="15.13269">
    <ele>576</ele>
    <time>2016-07-24T09:05:19Z</time>
    </trkpt>
    <trkpt lat="48.93842" lon="15.13238">
    <ele>576</ele>
    <time>2016-07-24T09:05:24Z</time>
    </trkpt>
    <trkpt lat="48.93842" lon="15.13205">
    <ele>576</ele>
    <time>2016-07-24T09:05:29Z</time>
    </trkpt>
    <trkpt lat="48.93843" lon="15.13128">
    <ele>576</ele>
    <time>2016-07-24T09:05:41Z</time>
    </trkpt>
    <trkpt lat="48.93844" lon="15.13129">
    <ele>576</ele>
    <time>2016-07-24T09:05:41Z</time>
    </trkpt>
    <trkpt lat="48.93843" lon="15.13206">
    <ele>576</ele>
    <time>2016-07-24T09:05:53Z</time>
    </trkpt>
    <trkpt lat="48.93843" lon="15.13239">
    <ele>576</ele>
    <time>2016-07-24T09:05:59Z</time>
    </trkpt>
    <trkpt lat="48.93846" lon="15.1327">
    <ele>576</ele>
    <time>2016-07-24T09:06:03Z</time>
    </trkpt>
    <trkpt lat="48.93844" lon="15.13278">
    <ele>576</ele>
    <time>2016-07-24T09:06:05Z</time>
    </trkpt>
    <trkpt lat="48.93837" lon="15.13289">
    <ele>576</ele>
    <time>2016-07-24T09:06:07Z</time>
    </trkpt>
    <trkpt lat="48.93815" lon="15.13295">
    <ele>576</ele>
    <time>2016-07-24T09:06:12Z</time>
    </trkpt>
    <trkpt lat="48.93808" lon="15.13301">
    <ele>576</ele>
    <time>2016-07-24T09:06:14Z</time>
    </trkpt>
    <trkpt lat="48.93792" lon="15.1335">
    <ele>577</ele>
    <time>2016-07-24T09:06:23Z</time>
    </trkpt>
    <trkpt lat="48.93746" lon="15.13473">
    <ele>578</ele>
    <time>2016-07-24T09:06:45Z</time>
    </trkpt>
    <trkpt lat="48.93745" lon="15.13473">
    <ele>578</ele>
    <time>2016-07-24T09:06:45Z</time>
    </trkpt>
    <trkpt lat="48.93793" lon="15.13543">
    <ele>579</ele>
    <time>2016-07-24T09:07:01Z</time>
    </trkpt>
    <trkpt lat="48.93811" lon="15.13564">
    <ele>579</ele>
    <time>2016-07-24T09:07:06Z</time>
    </trkpt>
    <trkpt lat="48.93833" lon="15.1358">
    <ele>579</ele>
    <time>2016-07-24T09:07:12Z</time>
    </trkpt>
    <trkpt lat="48.93855" lon="15.13589">
    <ele>579</ele>
    <time>2016-07-24T09:07:17Z</time>
    </trkpt>
    <trkpt lat="48.93882" lon="15.13597">
    <ele>580</ele>
    <time>2016-07-24T09:07:24Z</time>
    </trkpt>
    <trkpt lat="48.94107" lon="15.13638">
    <ele>582</ele>
    <time>2016-07-24T09:08:17Z</time>
    </trkpt>
    <trkpt lat="48.94124" lon="15.13645">
    <ele>582</ele>
    <time>2016-07-24T09:08:21Z</time>
    </trkpt>
    <trkpt lat="48.94205" lon="15.13697">
    <ele>583</ele>
    <time>2016-07-24T09:08:42Z</time>
    </trkpt>
    <trkpt lat="48.94252" lon="15.13717">
    <ele>583</ele>
    <time>2016-07-24T09:08:53Z</time>
    </trkpt>
    <trkpt lat="48.94285" lon="15.13727">
    <ele>584</ele>
    <time>2016-07-24T09:09:01Z</time>
    </trkpt>
    <trkpt lat="48.9433" lon="15.13736">
    <ele>584</ele>
    <time>2016-07-24T09:09:12Z</time>
    </trkpt>
    <trkpt lat="48.94358" lon="15.13732">
    <ele>584</ele>
    <time>2016-07-24T09:09:18Z</time>
    </trkpt>
    <trkpt lat="48.94375" lon="15.13723">
    <ele>584</ele>
    <time>2016-07-24T09:09:23Z</time>
    </trkpt>
    <trkpt lat="48.94413" lon="15.1369">
    <ele>584</ele>
    <time>2016-07-24T09:09:33Z</time>
    </trkpt>
    <trkpt lat="48.94429" lon="15.13681">
    <ele>584</ele>
    <time>2016-07-24T09:09:37Z</time>
    </trkpt>
    <trkpt lat="48.94472" lon="15.13676">
    <ele>584</ele>
    <time>2016-07-24T09:09:47Z</time>
    </trkpt>
    <trkpt lat="48.94536" lon="15.13674">
    <ele>584</ele>
    <time>2016-07-24T09:10:02Z</time>
    </trkpt>
    <trkpt lat="48.94605" lon="15.13676">
    <ele>585</ele>
    <time>2016-07-24T09:10:19Z</time>
    </trkpt>
    <trkpt lat="48.94629" lon="15.13667">
    <ele>585</ele>
    <time>2016-07-24T09:10:24Z</time>
    </trkpt>
    <trkpt lat="48.94648" lon="15.13656">
    <ele>585</ele>
    <time>2016-07-24T09:10:29Z</time>
    </trkpt>
    <trkpt lat="48.94675" lon="15.13649">
    <ele>585</ele>
    <time>2016-07-24T09:10:36Z</time>
    </trkpt>
    <trkpt lat="48.94695" lon="15.1364">
    <ele>585</ele>
    <time>2016-07-24T09:10:41Z</time>
    </trkpt>
    <trkpt lat="48.94702" lon="15.13657">
    <ele>585</ele>
    <time>2016-07-24T09:10:44Z</time>
    </trkpt>
    <trkpt lat="48.94713" lon="15.13673">
    <ele>585</ele>
    <time>2016-07-24T09:10:47Z</time>
    </trkpt>
    <trkpt lat="48.94714" lon="15.13673">
    <ele>585</ele>
    <time>2016-07-24T09:10:47Z</time>
    </trkpt>
    <trkpt lat="48.94754" lon="15.13731">
    <ele>585</ele>
    <time>2016-07-24T09:11:00Z</time>
    </trkpt>
    <trkpt lat="48.94781" lon="15.13765">
    <ele>586</ele>
    <time>2016-07-24T09:11:09Z</time>
    </trkpt>
    <trkpt lat="48.94811" lon="15.13793">
    <ele>586</ele>
    <time>2016-07-24T09:11:17Z</time>
    </trkpt>
    <trkpt lat="48.94846" lon="15.13812">
    <ele>586</ele>
    <time>2016-07-24T09:11:26Z</time>
    </trkpt>
    <trkpt lat="48.94862" lon="15.13817">
    <ele>586</ele>
    <time>2016-07-24T09:11:30Z</time>
    </trkpt>
    <trkpt lat="48.94882" lon="15.13819">
    <ele>586</ele>
    <time>2016-07-24T09:11:34Z</time>
    </trkpt>
    <trkpt lat="48.95157" lon="15.13835">
    <ele>590</ele>
    <time>2016-07-24T09:12:39Z</time>
    </trkpt>
    <trkpt lat="48.9524" lon="15.13842">
    <ele>592</ele>
    <time>2016-07-24T09:12:59Z</time>
    </trkpt>
    <trkpt lat="48.9531" lon="15.13857">
    <ele>593</ele>
    <time>2016-07-24T09:13:15Z</time>
    </trkpt>
    <trkpt lat="48.95335" lon="15.13868">
    <ele>593</ele>
    <time>2016-07-24T09:13:21Z</time>
    </trkpt>
    <trkpt lat="48.95358" lon="15.13887">
    <ele>593</ele>
    <time>2016-07-24T09:13:28Z</time>
    </trkpt>
    <trkpt lat="48.95418" lon="15.13959">
    <ele>595</ele>
    <time>2016-07-24T09:13:46Z</time>
    </trkpt>
    <trkpt lat="48.95436" lon="15.13978">
    <ele>595</ele>
    <time>2016-07-24T09:13:51Z</time>
    </trkpt>
    <trkpt lat="48.95582" lon="15.14108">
    <ele>599</ele>
    <time>2016-07-24T09:14:31Z</time>
    </trkpt>
    <trkpt lat="48.95667" lon="15.14173">
    <ele>601</ele>
    <time>2016-07-24T09:14:53Z</time>
    </trkpt>
    <trkpt lat="48.95714" lon="15.142">
    <ele>602</ele>
    <time>2016-07-24T09:15:05Z</time>
    </trkpt>
    <trkpt lat="48.95746" lon="15.14213">
    <ele>602</ele>
    <time>2016-07-24T09:15:13Z</time>
    </trkpt>
    <trkpt lat="48.95772" lon="15.14219">
    <ele>603</ele>
    <time>2016-07-24T09:15:19Z</time>
    </trkpt>
    <trkpt lat="48.95854" lon="15.14222">
    <ele>604</ele>
    <time>2016-07-24T09:15:38Z</time>
    </trkpt>
    <trkpt lat="48.95874" lon="15.14227">
    <ele>604</ele>
    <time>2016-07-24T09:15:43Z</time>
    </trkpt>
    <trkpt lat="48.95894" lon="15.14235">
    <ele>604</ele>
    <time>2016-07-24T09:15:48Z</time>
    </trkpt>
    <trkpt lat="48.95921" lon="15.1425">
    <ele>603</ele>
    <time>2016-07-24T09:15:55Z</time>
    </trkpt>
    <trkpt lat="48.95945" lon="15.14265">
    <ele>603</ele>
    <time>2016-07-24T09:16:01Z</time>
    </trkpt>
    <trkpt lat="48.95981" lon="15.14294">
    <ele>602</ele>
    <time>2016-07-24T09:16:10Z</time>
    </trkpt>
    <trkpt lat="48.96073" lon="15.14381">
    <ele>600</ele>
    <time>2016-07-24T09:16:36Z</time>
    </trkpt>
    <trkpt lat="48.96092" lon="15.14402">
    <ele>599</ele>
    <time>2016-07-24T09:16:41Z</time>
    </trkpt>
    <trkpt lat="48.96139" lon="15.14466">
    <ele>598</ele>
    <time>2016-07-24T09:16:56Z</time>
    </trkpt>
    <trkpt lat="48.9616" lon="15.14491">
    <ele>598</ele>
    <time>2016-07-24T09:17:03Z</time>
    </trkpt>
    <trkpt lat="48.96182" lon="15.1451">
    <ele>597</ele>
    <time>2016-07-24T09:17:09Z</time>
    </trkpt>
    <trkpt lat="48.96205" lon="15.14526">
    <ele>597</ele>
    <time>2016-07-24T09:17:14Z</time>
    </trkpt>
    <trkpt lat="48.96222" lon="15.14532">
    <ele>597</ele>
    <time>2016-07-24T09:17:19Z</time>
    </trkpt>
    <trkpt lat="48.96277" lon="15.14542">
    <ele>597</ele>
    <time>2016-07-24T09:17:32Z</time>
    </trkpt>
    <trkpt lat="48.96338" lon="15.14547">
    <ele>596</ele>
    <time>2016-07-24T09:17:46Z</time>
    </trkpt>
    <trkpt lat="48.96357" lon="15.14553">
    <ele>596</ele>
    <time>2016-07-24T09:17:51Z</time>
    </trkpt>
    <trkpt lat="48.96384" lon="15.14573">
    <ele>596</ele>
    <time>2016-07-24T09:17:58Z</time>
    </trkpt>
    <trkpt lat="48.96501" lon="15.147">
    <ele>596</ele>
    <time>2016-07-24T09:18:32Z</time>
    </trkpt>
    <trkpt lat="48.96513" lon="15.14725">
    <ele>596</ele>
    <time>2016-07-24T09:18:36Z</time>
    </trkpt>
    <trkpt lat="48.96518" lon="15.14749">
    <ele>596</ele>
    <time>2016-07-24T09:18:40Z</time>
    </trkpt>
    <trkpt lat="48.9652" lon="15.14837">
    <ele>596</ele>
    <time>2016-07-24T09:18:54Z</time>
    </trkpt>
    <trkpt lat="48.96522" lon="15.14849">
    <ele>596</ele>
    <time>2016-07-24T09:18:56Z</time>
    </trkpt>
    <trkpt lat="48.96527" lon="15.14858">
    <ele>596</ele>
    <time>2016-07-24T09:18:58Z</time>
    </trkpt>
    <trkpt lat="48.96536" lon="15.14861">
    <ele>596</ele>
    <time>2016-07-24T09:19:00Z</time>
    </trkpt>
    <trkpt lat="48.96541" lon="15.14859">
    <ele>596</ele>
    <time>2016-07-24T09:19:01Z</time>
    </trkpt>
    <trkpt lat="48.96541" lon="15.1486">
    <ele>596</ele>
    <time>2016-07-24T09:19:01Z</time>
    </trkpt>
    <trkpt lat="48.96566" lon="15.14849">
    <ele>597</ele>
    <time>2016-07-24T09:19:07Z</time>
    </trkpt>
    <trkpt lat="48.96585" lon="15.14848">
    <ele>597</ele>
    <time>2016-07-24T09:19:12Z</time>
    </trkpt>
    <trkpt lat="48.96616" lon="15.1486">
    <ele>597</ele>
    <time>2016-07-24T09:19:19Z</time>
    </trkpt>
    <trkpt lat="48.96652" lon="15.14866">
    <ele>597</ele>
    <time>2016-07-24T09:19:28Z</time>
    </trkpt>
    <trkpt lat="48.96726" lon="15.14876">
    <ele>597</ele>
    <time>2016-07-24T09:19:45Z</time>
    </trkpt>
    <trkpt lat="48.96743" lon="15.14871">
    <ele>597</ele>
    <time>2016-07-24T09:19:49Z</time>
    </trkpt>
    <trkpt lat="48.96757" lon="15.14861">
    <ele>597</ele>
    <time>2016-07-24T09:19:53Z</time>
    </trkpt>
    <trkpt lat="48.96774" lon="15.14841">
    <ele>597</ele>
    <time>2016-07-24T09:19:58Z</time>
    </trkpt>
    <trkpt lat="48.96786" lon="15.14815">
    <ele>597</ele>
    <time>2016-07-24T09:20:03Z</time>
    </trkpt>
    <trkpt lat="48.96818" lon="15.14742">
    <ele>598</ele>
    <time>2016-07-24T09:20:17Z</time>
    </trkpt>
    <trkpt lat="48.96835" lon="15.14716">
    <ele>598</ele>
    <time>2016-07-24T09:20:22Z</time>
    </trkpt>
    <trkpt lat="48.96879" lon="15.14663">
    <ele>598</ele>
    <time>2016-07-24T09:20:36Z</time>
    </trkpt>
    <trkpt lat="48.96893" lon="15.14648">
    <ele>598</ele>
    <time>2016-07-24T09:20:40Z</time>
    </trkpt>
    <trkpt lat="48.96913" lon="15.14639">
    <ele>598</ele>
    <time>2016-07-24T09:20:44Z</time>
    </trkpt>
    <trkpt lat="48.96944" lon="15.14637">
    <ele>599</ele>
    <time>2016-07-24T09:20:52Z</time>
    </trkpt>
    <trkpt lat="48.97105" lon="15.14648">
    <ele>600</ele>
    <time>2016-07-24T09:21:30Z</time>
    </trkpt>
    <trkpt lat="48.97137" lon="15.14645">
    <ele>600</ele>
    <time>2016-07-24T09:21:37Z</time>
    </trkpt>
    <trkpt lat="48.97206" lon="15.14622">
    <ele>601</ele>
    <time>2016-07-24T09:21:54Z</time>
    </trkpt>
    <trkpt lat="48.97227" lon="15.1462">
    <ele>601</ele>
    <time>2016-07-24T09:21:59Z</time>
    </trkpt>
    <trkpt lat="48.97313" lon="15.14631">
    <ele>602</ele>
    <time>2016-07-24T09:22:19Z</time>
    </trkpt>
    <trkpt lat="48.97344" lon="15.14632">
    <ele>603</ele>
    <time>2016-07-24T09:22:26Z</time>
    </trkpt>
    <trkpt lat="48.97371" lon="15.14623">
    <ele>603</ele>
    <time>2016-07-24T09:22:33Z</time>
    </trkpt>
    <trkpt lat="48.97391" lon="15.14612">
    <ele>604</ele>
    <time>2016-07-24T09:22:38Z</time>
    </trkpt>
    <trkpt lat="48.97491" lon="15.14544">
    <ele>607</ele>
    <time>2016-07-24T09:23:04Z</time>
    </trkpt>
    <trkpt lat="48.97519" lon="15.14533">
    <ele>608</ele>
    <time>2016-07-24T09:23:11Z</time>
    </trkpt>
    <trkpt lat="48.97541" lon="15.14529">
    <ele>608</ele>
    <time>2016-07-24T09:23:16Z</time>
    </trkpt>
    <trkpt lat="48.97566" lon="15.14529">
    <ele>609</ele>
    <time>2016-07-24T09:23:22Z</time>
    </trkpt>
    <trkpt lat="48.97615" lon="15.14537">
    <ele>610</ele>
    <time>2016-07-24T09:23:33Z</time>
    </trkpt>
    <trkpt lat="48.97633" lon="15.14538">
    <ele>611</ele>
    <time>2016-07-24T09:23:38Z</time>
    </trkpt>
    <trkpt lat="48.97647" lon="15.14536">
    <ele>611</ele>
    <time>2016-07-24T09:23:41Z</time>
    </trkpt>
    <trkpt lat="48.97672" lon="15.14526">
    <ele>612</ele>
    <time>2016-07-24T09:23:47Z</time>
    </trkpt>
    <trkpt lat="48.97712" lon="15.14504">
    <ele>613</ele>
    <time>2016-07-24T09:23:57Z</time>
    </trkpt>
    <trkpt lat="48.97862" lon="15.14412">
    <ele>616</ele>
    <time>2016-07-24T09:24:35Z</time>
    </trkpt>
    <trkpt lat="48.97884" lon="15.144">
    <ele>616</ele>
    <time>2016-07-24T09:24:41Z</time>
    </trkpt>
    <trkpt lat="48.97899" lon="15.14396">
    <ele>616</ele>
    <time>2016-07-24T09:24:44Z</time>
    </trkpt>
    <trkpt lat="48.97917" lon="15.14394">
    <ele>617</ele>
    <time>2016-07-24T09:24:48Z</time>
    </trkpt>
    <trkpt lat="48.98175" lon="15.14403">
    <ele>621</ele>
    <time>2016-07-24T09:25:49Z</time>
    </trkpt>
    <trkpt lat="48.98197" lon="15.144">
    <ele>622</ele>
    <time>2016-07-24T09:25:54Z</time>
    </trkpt>
    <trkpt lat="48.9822" lon="15.14393">
    <ele>622</ele>
    <time>2016-07-24T09:26:00Z</time>
    </trkpt>
    <trkpt lat="48.985" lon="15.14248">
    <ele>627</ele>
    <time>2016-07-24T09:27:10Z</time>
    </trkpt>
    <trkpt lat="48.98573" lon="15.14217">
    <ele>628</ele>
    <time>2016-07-24T09:27:27Z</time>
    </trkpt>
    <trkpt lat="48.98607" lon="15.14205">
    <ele>629</ele>
    <time>2016-07-24T09:27:36Z</time>
    </trkpt>
    <trkpt lat="48.98643" lon="15.14201">
    <ele>630</ele>
    <time>2016-07-24T09:27:44Z</time>
    </trkpt>
    <trkpt lat="48.98692" lon="15.14205">
    <ele>631</ele>
    <time>2016-07-24T09:27:56Z</time>
    </trkpt>
    <trkpt lat="48.98721" lon="15.1421">
    <ele>631</ele>
    <time>2016-07-24T09:28:03Z</time>
    </trkpt>
    <trkpt lat="48.98732" lon="15.14216">
    <ele>632</ele>
    <time>2016-07-24T09:28:05Z</time>
    </trkpt>
    <trkpt lat="48.98739" lon="15.14223">
    <ele>632</ele>
    <time>2016-07-24T09:28:07Z</time>
    </trkpt>
    <trkpt lat="48.98745" lon="15.14233">
    <ele>632</ele>
    <time>2016-07-24T09:28:09Z</time>
    </trkpt>
    <trkpt lat="48.98753" lon="15.14264">
    <ele>632</ele>
    <time>2016-07-24T09:28:15Z</time>
    </trkpt>
    <trkpt lat="48.98761" lon="15.14277">
    <ele>632</ele>
    <time>2016-07-24T09:28:17Z</time>
    </trkpt>
    <trkpt lat="48.9878" lon="15.14296">
    <ele>632</ele>
    <time>2016-07-24T09:28:23Z</time>
    </trkpt>
    <trkpt lat="48.98793" lon="15.14302">
    <ele>632</ele>
    <time>2016-07-24T09:28:26Z</time>
    </trkpt>
    <trkpt lat="48.98848" lon="15.14314">
    <ele>633</ele>
    <time>2016-07-24T09:28:39Z</time>
    </trkpt>
    <trkpt lat="48.9887" lon="15.14314">
    <ele>633</ele>
    <time>2016-07-24T09:28:44Z</time>
    </trkpt>
    <trkpt lat="48.98977" lon="15.14275">
    <ele>635</ele>
    <time>2016-07-24T09:29:10Z</time>
    </trkpt>
    <trkpt lat="48.99006" lon="15.14267">
    <ele>636</ele>
    <time>2016-07-24T09:29:17Z</time>
    </trkpt>
    <trkpt lat="48.99021" lon="15.14268">
    <ele>636</ele>
    <time>2016-07-24T09:29:21Z</time>
    </trkpt>
    <trkpt lat="48.99067" lon="15.14282">
    <ele>636</ele>
    <time>2016-07-24T09:29:32Z</time>
    </trkpt>
    <trkpt lat="48.99109" lon="15.14274">
    <ele>636</ele>
    <time>2016-07-24T09:29:42Z</time>
    </trkpt>
    <trkpt lat="48.99134" lon="15.14288">
    <ele>636</ele>
    <time>2016-07-24T09:29:48Z</time>
    </trkpt>
    <trkpt lat="48.99142" lon="15.14299">
    <ele>636</ele>
    <time>2016-07-24T09:29:50Z</time>
    </trkpt>
    <trkpt lat="48.99142" lon="15.143">
    <ele>636</ele>
    <time>2016-07-24T09:29:51Z</time>
    </trkpt>
    <trkpt lat="48.99185" lon="15.14361">
    <ele>637</ele>
    <time>2016-07-24T09:30:04Z</time>
    </trkpt>
    <trkpt lat="48.992" lon="15.1435">
    <ele>637</ele>
    <time>2016-07-24T09:30:08Z</time>
    </trkpt>
    <trkpt lat="48.99225" lon="15.14314">
    <ele>637</ele>
    <time>2016-07-24T09:30:16Z</time>
    </trkpt>
    <trkpt lat="48.99251" lon="15.14258">
    <ele>638</ele>
    <time>2016-07-24T09:30:27Z</time>
    </trkpt>
    <trkpt lat="48.99265" lon="15.14216">
    <ele>638</ele>
    <time>2016-07-24T09:30:34Z</time>
    </trkpt>
    <trkpt lat="48.99276" lon="15.14175">
    <ele>638</ele>
    <time>2016-07-24T09:30:41Z</time>
    </trkpt>
    <trkpt lat="48.99276" lon="15.14114">
    <ele>638</ele>
    <time>2016-07-24T09:30:51Z</time>
    </trkpt>
    <trkpt lat="48.99288" lon="15.14074">
    <ele>638</ele>
    <time>2016-07-24T09:30:57Z</time>
    </trkpt>
    <trkpt lat="48.99325" lon="15.13937">
    <ele>638</ele>
    <time>2016-07-24T09:31:20Z</time>
    </trkpt>
    <trkpt lat="48.9935" lon="15.13814">
    <ele>638</ele>
    <time>2016-07-24T09:31:40Z</time>
    </trkpt>
    <trkpt lat="48.9938" lon="15.13644">
    <ele>637</ele>
    <time>2016-07-24T09:32:08Z</time>
    </trkpt>
    <trkpt lat="48.99386" lon="15.13482">
    <ele>636</ele>
    <time>2016-07-24T09:32:33Z</time>
    </trkpt>
    <trkpt lat="48.9937" lon="15.13206">
    <ele>634</ele>
    <time>2016-07-24T09:33:16Z</time>
    </trkpt>
    <trkpt lat="48.99355" lon="15.13052">
    <ele>633</ele>
    <time>2016-07-24T09:33:40Z</time>
    </trkpt>
    <trkpt lat="48.99346" lon="15.12917">
    <ele>632</ele>
    <time>2016-07-24T09:34:01Z</time>
    </trkpt>
    <trkpt lat="48.99336" lon="15.12879">
    <ele>632</ele>
    <time>2016-07-24T09:34:07Z</time>
    </trkpt>
    <trkpt lat="48.99315" lon="15.12827">
    <ele>631</ele>
    <time>2016-07-24T09:34:17Z</time>
    </trkpt>
    <trkpt lat="48.99309" lon="15.1276">
    <ele>630</ele>
    <time>2016-07-24T09:34:27Z</time>
    </trkpt>
    <trkpt lat="48.99323" lon="15.12652">
    <ele>629</ele>
    <time>2016-07-24T09:34:44Z</time>
    </trkpt>
    <trkpt lat="48.99365" lon="15.12522">
    <ele>627</ele>
    <time>2016-07-24T09:35:07Z</time>
    </trkpt>
    <trkpt lat="48.99401" lon="15.12433">
    <ele>626</ele>
    <time>2016-07-24T09:35:23Z</time>
    </trkpt>
    <trkpt lat="48.99425" lon="15.1237">
    <ele>625</ele>
    <time>2016-07-24T09:35:34Z</time>
    </trkpt>
    <trkpt lat="48.99442" lon="15.12305">
    <ele>624</ele>
    <time>2016-07-24T09:35:45Z</time>
    </trkpt>
    <trkpt lat="48.99444" lon="15.12277">
    <ele>623</ele>
    <time>2016-07-24T09:35:49Z</time>
    </trkpt>
    <trkpt lat="48.99443" lon="15.12253">
    <ele>623</ele>
    <time>2016-07-24T09:35:53Z</time>
    </trkpt>
    <trkpt lat="48.99438" lon="15.12233">
    <ele>623</ele>
    <time>2016-07-24T09:35:56Z</time>
    </trkpt>
    <trkpt lat="48.99422" lon="15.12192">
    <ele>623</ele>
    <time>2016-07-24T09:36:04Z</time>
    </trkpt>
    <trkpt lat="48.99409" lon="15.12154">
    <ele>623</ele>
    <time>2016-07-24T09:36:10Z</time>
    </trkpt>
    <trkpt lat="48.994" lon="15.12103">
    <ele>622</ele>
    <time>2016-07-24T09:36:19Z</time>
    </trkpt>
    <trkpt lat="48.99396" lon="15.12048">
    <ele>622</ele>
    <time>2016-07-24T09:36:27Z</time>
    </trkpt>
    <trkpt lat="48.99419" lon="15.1182">
    <ele>622</ele>
    <time>2016-07-24T09:37:03Z</time>
    </trkpt>
    <trkpt lat="48.99453" lon="15.1161">
    <ele>622</ele>
    <time>2016-07-24T09:37:36Z</time>
    </trkpt>
    <trkpt lat="48.99457" lon="15.11572">
    <ele>622</ele>
    <time>2016-07-24T09:37:42Z</time>
    </trkpt>
    <trkpt lat="48.99462" lon="15.11469">
    <ele>622</ele>
    <time>2016-07-24T09:37:58Z</time>
    </trkpt>
    <trkpt lat="48.99459" lon="15.11404">
    <ele>622</ele>
    <time>2016-07-24T09:38:08Z</time>
    </trkpt>
    <trkpt lat="48.9946" lon="15.11404">
    <ele>622</ele>
    <time>2016-07-24T09:38:09Z</time>
    </trkpt>
    <trkpt lat="48.99455" lon="15.11336">
    <ele>622</ele>
    <time>2016-07-24T09:38:19Z</time>
    </trkpt>
    <trkpt lat="48.99455" lon="15.11322">
    <ele>622</ele>
    <time>2016-07-24T09:38:21Z</time>
    </trkpt>
    <trkpt lat="48.99286" lon="15.11247">
    <ele>623</ele>
    <time>2016-07-24T09:39:03Z</time>
    </trkpt>
    <trkpt lat="48.99286" lon="15.11247">
    <ele>623</ele>
    <time>2016-07-24T09:39:03Z</time>
    </trkpt>
    <trkpt lat="48.9926" lon="15.11235">
    <ele>622</ele>
    <time>2016-07-24T09:39:09Z</time>
    </trkpt>
    <trkpt lat="48.99289" lon="15.11139">
    <ele>621</ele>
    <time>2016-07-24T09:39:26Z</time>
    </trkpt>
    <trkpt lat="48.99361" lon="15.10869">
    <ele>617</ele>
    <time>2016-07-24T09:40:11Z</time>
    </trkpt>
    <trkpt lat="48.99406" lon="15.10745">
    <ele>615</ele>
    <time>2016-07-24T09:40:33Z</time>
    </trkpt>
    <trkpt lat="48.99421" lon="15.10689">
    <ele>614</ele>
    <time>2016-07-24T09:40:42Z</time>
    </trkpt>
    <trkpt lat="48.9942" lon="15.10634">
    <ele>613</ele>
    <time>2016-07-24T09:40:51Z</time>
    </trkpt>
    <trkpt lat="48.99412" lon="15.10522">
    <ele>610</ele>
    <time>2016-07-24T09:41:08Z</time>
    </trkpt>
    <trkpt lat="48.99412" lon="15.10484">
    <ele>610</ele>
    <time>2016-07-24T09:41:14Z</time>
    </trkpt>
    <trkpt lat="48.99419" lon="15.10443">
    <ele>609</ele>
    <time>2016-07-24T09:41:21Z</time>
    </trkpt>
    <trkpt lat="48.99413" lon="15.10368">
    <ele>607</ele>
    <time>2016-07-24T09:41:32Z</time>
    </trkpt>
    <trkpt lat="48.99403" lon="15.10332">
    <ele>607</ele>
    <time>2016-07-24T09:41:38Z</time>
    </trkpt>
    <trkpt lat="48.9939" lon="15.10308">
    <ele>606</ele>
    <time>2016-07-24T09:41:43Z</time>
    </trkpt>
    <trkpt lat="48.99365" lon="15.10282">
    <ele>605</ele>
    <time>2016-07-24T09:41:50Z</time>
    </trkpt>
    <trkpt lat="48.99358" lon="15.10263">
    <ele>605</ele>
    <time>2016-07-24T09:41:54Z</time>
    </trkpt>
    <trkpt lat="48.99358" lon="15.10245">
    <ele>605</ele>
    <time>2016-07-24T09:41:56Z</time>
    </trkpt>
    <trkpt lat="48.9936" lon="15.10225">
    <ele>605</ele>
    <time>2016-07-24T09:42:00Z</time>
    </trkpt>
    <trkpt lat="48.99363" lon="15.10217">
    <ele>605</ele>
    <time>2016-07-24T09:42:01Z</time>
    </trkpt>
    <trkpt lat="48.99363" lon="15.10218">
    <ele>605</ele>
    <time>2016-07-24T09:42:01Z</time>
    </trkpt>
    <trkpt lat="48.99418" lon="15.10087">
    <ele>604</ele>
    <time>2016-07-24T09:42:25Z</time>
    </trkpt>
    <trkpt lat="48.99462" lon="15.09957">
    <ele>605</ele>
    <time>2016-07-24T09:42:48Z</time>
    </trkpt>
    <trkpt lat="48.99473" lon="15.09905">
    <ele>605</ele>
    <time>2016-07-24T09:42:56Z</time>
    </trkpt>
    <trkpt lat="48.99473" lon="15.09875">
    <ele>605</ele>
    <time>2016-07-24T09:43:01Z</time>
    </trkpt>
    <trkpt lat="48.99467" lon="15.09817">
    <ele>605</ele>
    <time>2016-07-24T09:43:10Z</time>
    </trkpt>
    <trkpt lat="48.99465" lon="15.0979">
    <ele>605</ele>
    <time>2016-07-24T09:43:14Z</time>
    </trkpt>
    <trkpt lat="48.99468" lon="15.09762">
    <ele>605</ele>
    <time>2016-07-24T09:43:19Z</time>
    </trkpt>
    <trkpt lat="48.99485" lon="15.09694">
    <ele>604</ele>
    <time>2016-07-24T09:43:30Z</time>
    </trkpt>
    <trkpt lat="48.9949" lon="15.09663">
    <ele>604</ele>
    <time>2016-07-24T09:43:35Z</time>
    </trkpt>
    <trkpt lat="48.99493" lon="15.09596">
    <ele>604</ele>
    <time>2016-07-24T09:43:45Z</time>
    </trkpt>
    <trkpt lat="48.995" lon="15.09516">
    <ele>604</ele>
    <time>2016-07-24T09:43:58Z</time>
    </trkpt>
    <trkpt lat="48.99507" lon="15.0948">
    <ele>603</ele>
    <time>2016-07-24T09:44:04Z</time>
    </trkpt>
    <trkpt lat="48.99507" lon="15.0948">
    <ele>603</ele>
    <time>2016-07-24T09:44:04Z</time>
    </trkpt>
    <trkpt lat="48.99518" lon="15.09414">
    <ele>602</ele>
    <time>2016-07-24T09:44:14Z</time>
    </trkpt>
    <trkpt lat="48.9953" lon="15.09303">
    <ele>601</ele>
    <time>2016-07-24T09:44:32Z</time>
    </trkpt>
    <trkpt lat="48.99562" lon="15.09119">
    <ele>598</ele>
    <time>2016-07-24T09:45:01Z</time>
    </trkpt>
    <trkpt lat="48.99566" lon="15.09081">
    <ele>597</ele>
    <time>2016-07-24T09:45:07Z</time>
    </trkpt>
    <trkpt lat="48.99564" lon="15.09025">
    <ele>595</ele>
    <time>2016-07-24T09:45:16Z</time>
    </trkpt>
    <trkpt lat="48.99549" lon="15.08964">
    <ele>593</ele>
    <time>2016-07-24T09:45:26Z</time>
    </trkpt>
    <trkpt lat="48.99541" lon="15.08949">
    <ele>593</ele>
    <time>2016-07-24T09:45:29Z</time>
    </trkpt>
    <trkpt lat="48.9954" lon="15.08949">
    <ele>593</ele>
    <time>2016-07-24T09:45:29Z</time>
    </trkpt>
    <trkpt lat="48.99514" lon="15.08897">
    <ele>590</ele>
    <time>2016-07-24T09:45:39Z</time>
    </trkpt>
    <trkpt lat="48.99473" lon="15.08829">
    <ele>587</ele>
    <time>2016-07-24T09:45:53Z</time>
    </trkpt>
    <trkpt lat="48.99416" lon="15.08757">
    <ele>583</ele>
    <time>2016-07-24T09:46:11Z</time>
    </trkpt>
    <trkpt lat="48.99368" lon="15.08711">
    <ele>580</ele>
    <time>2016-07-24T09:46:24Z</time>
    </trkpt>
    <trkpt lat="48.99336" lon="15.08686">
    <ele>578</ele>
    <time>2016-07-24T09:46:33Z</time>
    </trkpt>
    <trkpt lat="48.9928" lon="15.08706">
    <ele>576</ele>
    <time>2016-07-24T09:46:46Z</time>
    </trkpt>
    <trkpt lat="48.99231" lon="15.08699">
    <ele>575</ele>
    <time>2016-07-24T09:46:58Z</time>
    </trkpt>
    <trkpt lat="48.99217" lon="15.0869">
    <ele>574</ele>
    <time>2016-07-24T09:47:01Z</time>
    </trkpt>
    <trkpt lat="48.99224" lon="15.08649">
    <ele>574</ele>
    <time>2016-07-24T09:47:08Z</time>
    </trkpt>
    <trkpt lat="48.99229" lon="15.08597">
    <ele>573</ele>
    <time>2016-07-24T09:47:16Z</time>
    </trkpt>
    <trkpt lat="48.99241" lon="15.0855">
    <ele>573</ele>
    <time>2016-07-24T09:47:24Z</time>
    </trkpt>
    <trkpt lat="48.99269" lon="15.08472">
    <ele>575</ele>
    <time>2016-07-24T09:47:38Z</time>
    </trkpt>
    <trkpt lat="48.9931" lon="15.0837">
    <ele>577</ele>
    <time>2016-07-24T09:47:56Z</time>
    </trkpt>
    <trkpt lat="48.99397" lon="15.0817">
    <ele>581</ele>
    <time>2016-07-24T09:48:33Z</time>
    </trkpt>
    <trkpt lat="48.99413" lon="15.08126">
    <ele>582</ele>
    <time>2016-07-24T09:48:41Z</time>
    </trkpt>
    <trkpt lat="48.99427" lon="15.0808">
    <ele>583</ele>
    <time>2016-07-24T09:48:49Z</time>
    </trkpt>
    <trkpt lat="48.99465" lon="15.07944">
    <ele>585</ele>
    <time>2016-07-24T09:49:12Z</time>
    </trkpt>
    <trkpt lat="48.99488" lon="15.07874">
    <ele>587</ele>
    <time>2016-07-24T09:49:24Z</time>
    </trkpt>
    <trkpt lat="48.99629" lon="15.07517">
    <ele>594</ele>
    <time>2016-07-24T09:50:29Z</time>
    </trkpt>
    <trkpt lat="48.9965" lon="15.07457">
    <ele>595</ele>
    <time>2016-07-24T09:50:39Z</time>
    </trkpt>
    <trkpt lat="48.99664" lon="15.07408">
    <ele>596</ele>
    <time>2016-07-24T09:50:47Z</time>
    </trkpt>
    <trkpt lat="48.99726" lon="15.07175">
    <ele>596</ele>
    <time>2016-07-24T09:51:26Z</time>
    </trkpt>
    <trkpt lat="48.99818" lon="15.0687">
    <ele>596</ele>
    <time>2016-07-24T09:52:18Z</time>
    </trkpt>
    <trkpt lat="48.99825" lon="15.06838">
    <ele>596</ele>
    <time>2016-07-24T09:52:24Z</time>
    </trkpt>
    <trkpt lat="48.99826" lon="15.06839">
    <ele>596</ele>
    <time>2016-07-24T09:52:24Z</time>
    </trkpt>
    <trkpt lat="48.99832" lon="15.06817">
    <ele>596</ele>
    <time>2016-07-24T09:52:28Z</time>
    </trkpt>
    <trkpt lat="48.99837" lon="15.06764">
    <ele>595</ele>
    <time>2016-07-24T09:52:36Z</time>
    </trkpt>
    <trkpt lat="48.99839" lon="15.06716">
    <ele>594</ele>
    <time>2016-07-24T09:52:43Z</time>
    </trkpt>
    <trkpt lat="48.99834" lon="15.06667">
    <ele>593</ele>
    <time>2016-07-24T09:52:51Z</time>
    </trkpt>
    <trkpt lat="48.99814" lon="15.06535">
    <ele>590</ele>
    <time>2016-07-24T09:53:12Z</time>
    </trkpt>
    <trkpt lat="48.9981" lon="15.06497">
    <ele>589</ele>
    <time>2016-07-24T09:53:18Z</time>
    </trkpt>
    <trkpt lat="48.99816" lon="15.06368">
    <ele>586</ele>
    <time>2016-07-24T09:53:38Z</time>
    </trkpt>
    <trkpt lat="48.99807" lon="15.06324">
    <ele>584</ele>
    <time>2016-07-24T09:53:45Z</time>
    </trkpt>
    <trkpt lat="48.99743" lon="15.06178">
    <ele>580</ele>
    <time>2016-07-24T09:54:12Z</time>
    </trkpt>
    <trkpt lat="48.99732" lon="15.06146">
    <ele>579</ele>
    <time>2016-07-24T09:54:18Z</time>
    </trkpt>
    <trkpt lat="48.99729" lon="15.0612">
    <ele>578</ele>
    <time>2016-07-24T09:54:22Z</time>
    </trkpt>
    <trkpt lat="48.99733" lon="15.06088">
    <ele>577</ele>
    <time>2016-07-24T09:54:27Z</time>
    </trkpt>
    <trkpt lat="48.99751" lon="15.06043">
    <ele>576</ele>
    <time>2016-07-24T09:54:35Z</time>
    </trkpt>
    <trkpt lat="48.99755" lon="15.0602">
    <ele>575</ele>
    <time>2016-07-24T09:54:39Z</time>
    </trkpt>
    <trkpt lat="48.99758" lon="15.05984">
    <ele>574</ele>
    <time>2016-07-24T09:54:44Z</time>
    </trkpt>
    <trkpt lat="48.99737" lon="15.05871">
    <ele>571</ele>
    <time>2016-07-24T09:55:03Z</time>
    </trkpt>
  </trkseg>
</trk>
</gpx>
